NOAA Web Site Link Tides and Currents Home Page Transparent placeholder image

PORTS® Data Listing: 9414290 San Francisco, CA

CO-OPS RAW PORTS DATA

************************      PRELIMINARY DATA      ************************** 

     THIS RAW DATA HAS NOT BEEN SUBJECT TO THE NATIONAL OCEAN SERVICE'S        
     QUALITY CONTROL OR QUALITY ASSURANCE PROCEDURES AND DOES NOT MEET         
     THE CRITERIA AND STANDARDS OF OFFICIAL NATIONAL OCEAN SERVICE             
     DATA.  IT IS RELEASED FOR LIMITED PUBLIC USE AS PRELIMINARY DATA TO       
     BE USED ONLY WITH APPROPRIATE CAUTION.                                    

************************      PRELIMINARY DATA      ************************** 


       CD   -   Calendar date
       T    -   Time
       TZ   -   Timezone
       PW   -   Predicted water level (feet above MLLW)
       OW   -   Observed water level (feet above MLLW)
       WS   -   Wind speed (knots)
       WD   -   Wind direction (degrees true)
       WG   -   Wind gust (knots)
       AT   -   Air temperature (degrees farenheit)
       WT   -   Water temperature (degrees farenheit)
       AP   -   Air pressure (millibars)
       SA   -   Salinty (PSU - Practical Salinity Units)
       SG   -   Specific gravity
       RH   -   Relative humidity
       AG   -   Air gap (feet)
       VI   -   Visibility (nautical miles)

       ** NOTE **
       A variable that has its data fields filled with "9"s, indicates that
       data was not collected for that sample period.
       **********


STATION NAME: San Francisco (9414290)
****************************************************************************************************
    CD       T    TZ    PW     OW    WS   WD   WG    AT    WT    AP    SA    SG     RH    AG   VI
****************************************************************************************************
2019/06/15 00:30 PDT    4.59   4.89    3  251    8  53.6  56.8 1014.8 -9.9 -9.999 -99.9 -99.99 -9.99
2019/06/15 00:36 PDT    4.44   4.73    3  227    7  53.4  56.8 1014.8 -9.9 -9.999 -99.9 -99.99 -9.99
2019/06/15 00:42 PDT    4.28   4.59    3  246   11  53.4  56.8 1014.9 -9.9 -9.999 -99.9 -99.99 -9.99
2019/06/15 00:48 PDT    4.12   4.41    5  248   11  53.4  56.8 1014.9 -9.9 -9.999 -99.9 -99.99 -9.99
2019/06/15 00:54 PDT    3.95   4.22    6  231   11  53.4  56.8 1014.8 -9.9 -9.999 -99.9 -99.99 -9.99
2019/06/15 01:00 PDT    3.78   4.02    2  245    9  53.4  56.8 1014.8 -9.9 -9.999 -99.9 -99.99 -9.99
2019/06/15 01:06 PDT    3.61   3.84    4  236   14  53.2  56.8 1014.8 -9.9 -9.999 -99.9 -99.99 -9.99
2019/06/15 01:12 PDT    3.44   3.65    3  247   12  53.2  56.8 1014.8 -9.9 -9.999 -99.9 -99.99 -9.99
2019/06/15 01:18 PDT    3.26   3.46    5  239    8  53.4  56.8 1014.8 -9.9 -9.999 -99.9 -99.99 -9.99
2019/06/15 01:24 PDT    3.09   3.28    2  227   11  53.4  56.8 1014.7 -9.9 -9.999 -99.9 -99.99 -9.99
2019/06/15 01:30 PDT    2.91   3.09    4  241   10  53.2  56.8 1014.8 -9.9 -9.999 -99.9 -99.99 -9.99
2019/06/15 01:36 PDT    2.74   2.91    4  192    8  53.2  56.8 1014.7 -9.9 -9.999 -99.9 -99.99 -9.99
2019/06/15 01:42 PDT    2.56   2.71    2  104    7  53.2  56.8 1014.8 -9.9 -9.999 -99.9 -99.99 -9.99
2019/06/15 01:48 PDT    2.39   2.51    6  227   13  53.1  56.8 1014.8 -9.9 -9.999 -99.9 -99.99 -9.99
2019/06/15 01:54 PDT    2.22   2.35    3  224    7  53.1  56.8 1014.8 -9.9 -9.999 -99.9 -99.99 -9.99
2019/06/15 02:00 PDT    2.05   2.22    2  231    8  53.2  56.8 1014.8 -9.9 -9.999 -99.9 -99.99 -9.99
2019/06/15 02:06 PDT    1.88   2.08    7  260   10  53.2  56.8 1014.8 -9.9 -9.999 -99.9 -99.99 -9.99
2019/06/15 02:12 PDT    1.72   1.91    4  250   11  53.2  56.8 1014.7 -9.9 -9.999 -99.9 -99.99 -9.99
2019/06/15 02:18 PDT    1.56   1.76    3  254   10  53.2  56.8 1014.6 -9.9 -9.999 -99.9 -99.99 -9.99
2019/06/15 02:24 PDT    1.40   1.59    2  269   12  53.2  56.8 1014.7 -9.9 -9.999 -99.9 -99.99 -9.99
2019/06/15 02:30 PDT    1.25   1.44    5  222    9  53.2  56.8 1014.6 -9.9 -9.999 -99.9 -99.99 -9.99
2019/06/15 02:36 PDT    1.10   1.32    6  265   11  53.1  56.8 1014.6 -9.9 -9.999 -99.9 -99.99 -9.99
2019/06/15 02:42 PDT    0.95   1.18    8  249   12  53.1  56.8 1014.6 -9.9 -9.999 -99.9 -99.99 -9.99
2019/06/15 02:48 PDT    0.81   1.06    6  220   10  53.1  56.8 1014.6 -9.9 -9.999 -99.9 -99.99 -9.99
2019/06/15 02:54 PDT    0.68   0.95    4  244   11  52.9  56.8 1014.5 -9.9 -9.999 -99.9 -99.99 -9.99
2019/06/15 03:00 PDT    0.55   0.82    4  256    7  52.9  56.8 1014.5 -9.9 -9.999 -99.9 -99.99 -9.99
2019/06/15 03:06 PDT    0.43   0.69    4  247    6  53.1  56.8 1014.5 -9.9 -9.999 -99.9 -99.99 -9.99
2019/06/15 03:12 PDT    0.31   0.59    4  233    9  53.1  56.8 1014.4 -9.9 -9.999 -99.9 -99.99 -9.99
2019/06/15 03:18 PDT    0.20   0.48    5  222   10  53.1  56.8 1014.3 -9.9 -9.999 -99.9 -99.99 -9.99
2019/06/15 03:24 PDT    0.10   0.41    5  233   11  52.7  56.8 1014.3 -9.9 -9.999 -99.9 -99.99 -9.99
2019/06/15 03:30 PDT   -0.00   0.35    4  239    7  52.9  56.8 1014.3 -9.9 -9.999 -99.9 -99.99 -9.99
2019/06/15 03:36 PDT   -0.09   0.26    6  214   11  53.1  56.8 1014.3 -9.9 -9.999 -99.9 -99.99 -9.99
2019/06/15 03:42 PDT   -0.18   0.18    6  243   14  52.7  56.8 1014.3 -9.9 -9.999 -99.9 -99.99 -9.99
2019/06/15 03:48 PDT   -0.26   0.12    5  236    9  52.7  56.8 1014.3 -9.9 -9.999 -99.9 -99.99 -9.99
2019/06/15 03:54 PDT   -0.33   0.06    7  233   15  52.7  56.8 1014.3 -9.9 -9.999 -99.9 -99.99 -9.99
2019/06/15 04:00 PDT   -0.40  -0.01    6  247   11  52.9  56.8 1014.3 -9.9 -9.999 -99.9 -99.99 -9.99
2019/06/15 04:06 PDT   -0.45  -0.05    5  252   11  52.9  56.8 1014.3 -9.9 -9.999 -99.9 -99.99 -9.99
2019/06/15 04:12 PDT   -0.51  -0.12    7  242   14  52.7  56.7 1014.3 -9.9 -9.999 -99.9 -99.99 -9.99
2019/06/15 04:18 PDT   -0.55  -0.21    7  261   15  52.7  56.7 1014.3 -9.9 -9.999 -99.9 -99.99 -9.99
2019/06/15 04:24 PDT   -0.59  -0.26    7  233   10  52.7  56.8 1014.3 -9.9 -9.999 -99.9 -99.99 -9.99
2019/06/15 04:30 PDT   -0.62  -0.24    8  248   13  52.5  57.2 1014.4 -9.9 -9.999 -99.9 -99.99 -9.99
2019/06/15 04:36 PDT   -0.65  -0.27    7  242   13  52.7  57.6 1014.4 -9.9 -9.999 -99.9 -99.99 -9.99
2019/06/15 04:42 PDT   -0.67  -0.28    6  249   12  52.7  57.9 1014.3 -9.9 -9.999 -99.9 -99.99 -9.99
2019/06/15 04:48 PDT   -0.68  -0.28    5  260   12  52.7  58.1 1014.3 -9.9 -9.999 -99.9 -99.99 -9.99
2019/06/15 04:54 PDT   -0.69  -0.29    4  248   13  52.9  58.3 1014.3 -9.9 -9.999 -99.9 -99.99 -9.99
2019/06/15 05:00 PDT   -0.69  -0.27    7  240   12  52.9  58.5 1014.3 -9.9 -9.999 -99.9 -99.99 -9.99
2019/06/15 05:06 PDT   -0.68  -0.23    6  243   16  52.7  58.5 1014.3 -9.9 -9.999 -99.9 -99.99 -9.99
2019/06/15 05:12 PDT   -0.67  -0.19    5  244   13  52.7  58.3 1014.3 -9.9 -9.999 -99.9 -99.99 -9.99
2019/06/15 05:18 PDT   -0.65  -0.14    7  256   13  52.5  58.1 1014.4 -9.9 -9.999 -99.9 -99.99 -9.99
2019/06/15 05:24 PDT   -0.62  -0.12    7  274   13  52.5  57.9 1014.4 -9.9 -9.999 -99.9 -99.99 -9.99
2019/06/15 05:30 PDT   -0.59  -0.09    4  222   10  52.7  57.9 1014.4 -9.9 -9.999 -99.9 -99.99 -9.99
2019/06/15 05:36 PDT   -0.56  -0.07    7  240   13  52.7  58.5 1014.5 -9.9 -9.999 -99.9 -99.99 -9.99
2019/06/15 05:42 PDT   -0.52  -0.05    9  269   15  52.5  58.8 1014.5 -9.9 -9.999 -99.9 -99.99 -9.99
2019/06/15 05:48 PDT   -0.47  -0.03    7  273   18  52.5  59.2 1014.5 -9.9 -9.999 -99.9 -99.99 -9.99
2019/06/15 05:54 PDT   -0.42  -0.00   10  260   15  52.5  59.2 1014.5 -9.9 -9.999 -99.9 -99.99 -9.99
2019/06/15 06:00 PDT   -0.36   0.06    6  247   16  52.7  59.2 1014.5 -9.9 -9.999 -99.9 -99.99 -9.99
2019/06/15 06:06 PDT   -0.30   0.14    4  255    7  52.9  59.0 1014.5 -9.9 -9.999 -99.9 -99.99 -9.99
2019/06/15 06:12 PDT   -0.24   0.21    8  240   17  52.7  59.0 1014.5 -9.9 -9.999 -99.9 -99.99 -9.99
2019/06/15 06:18 PDT   -0.17   0.30    6  284   12  52.9  59.5 1014.5 -9.9 -9.999 -99.9 -99.99 -9.99
2019/06/15 06:24 PDT   -0.10   0.37    5  253   12  52.7  59.9 1014.5 -9.9 -9.999 -99.9 -99.99 -9.99
2019/06/15 06:30 PDT   -0.02   0.45    4  252   11  52.7  60.1 1014.6 -9.9 -9.999 -99.9 -99.99 -9.99
2019/06/15 06:36 PDT    0.06   0.51    4  275    9  52.9  60.3 1014.7 -9.9 -9.999 -99.9 -99.99 -9.99
2019/06/15 06:42 PDT    0.14   0.58    3  235   10  52.9  60.3 1014.7 -9.9 -9.999 -99.9 -99.99 -9.99
2019/06/15 06:48 PDT    0.23   0.64    6  254   10  52.9  60.4 1014.7 -9.9 -9.999 -99.9 -99.99 -9.99
2019/06/15 06:54 PDT    0.32   0.72    6  224   12  52.7  60.4 1014.8 -9.9 -9.999 -99.9 -99.99 -9.99
2019/06/15 07:00 PDT    0.41   0.80    4  248   13  52.5  60.4 1014.9 -9.9 -9.999 -99.9 -99.99 -9.99
2019/06/15 07:06 PDT    0.51   0.88    7  225   12  52.7  60.4 1014.9 -9.9 -9.999 -99.9 -99.99 -9.99
2019/06/15 07:12 PDT    0.60   1.03    6  246    9  52.7  60.4 1014.9 -9.9 -9.999 -99.9 -99.99 -9.99
2019/06/15 07:18 PDT    0.70   1.15    4  246    6  52.7  60.4 1015.0 -9.9 -9.999 -99.9 -99.99 -9.99
2019/06/15 07:24 PDT    0.80   1.27    2  254   10  52.9  60.6 1015.0 -9.9 -9.999 -99.9 -99.99 -9.99
2019/06/15 07:30 PDT    0.90   1.36    6  236   12  52.7  60.8 1015.1 -9.9 -9.999 -99.9 -99.99 -9.99
2019/06/15 07:36 PDT    1.01   1.47    6  272   11  52.9  60.8 1015.1 -9.9 -9.999 -99.9 -99.99 -9.99
2019/06/15 07:42 PDT    1.11   1.57    6  265   13  52.5  60.8 1015.1 -9.9 -9.999 -99.9 -99.99 -9.99
2019/06/15 07:48 PDT    1.22   1.68    5  248    9  52.7  60.8 1015.1 -9.9 -9.999 -99.9 -99.99 -9.99
2019/06/15 07:54 PDT    1.33   1.79    5  231    9  52.9  61.0 1015.2 -9.9 -9.999 -99.9 -99.99 -9.99
2019/06/15 08:00 PDT    1.43   1.90    6  246   11  52.7  61.0 1015.2 -9.9 -9.999 -99.9 -99.99 -9.99
2019/06/15 08:06 PDT    1.54   2.00    7  262   11  52.7  60.6 1015.2 -9.9 -9.999 -99.9 -99.99 -9.99
2019/06/15 08:12 PDT    1.66   2.11    5  266    8  52.9  60.6 1015.2 -9.9 -9.999 -99.9 -99.99 -9.99
2019/06/15 08:18 PDT    1.77   2.28    7  231   12  53.1  60.6 1015.2 -9.9 -9.999 -99.9 -99.99 -9.99
2019/06/15 08:24 PDT    1.88   2.39    4  230    9  53.1  60.6 1015.3 -9.9 -9.999 -99.9 -99.99 -9.99
2019/06/15 08:30 PDT    1.99   2.50    7  240   11  52.9  60.4 1015.4 -9.9 -9.999 -99.9 -99.99 -9.99
2019/06/15 08:36 PDT    2.10   2.61    4  249    8  52.9  60.4 1015.4 -9.9 -9.999 -99.9 -99.99 -9.99
2019/06/15 08:42 PDT    2.22   2.73    3  240    9  53.1  60.4 1015.4 -9.9 -9.999 -99.9 -99.99 -9.99
2019/06/15 08:48 PDT    2.33   2.82    2  208    7  53.2  60.4 1015.4 -9.9 -9.999 -99.9 -99.99 -9.99
2019/06/15 08:54 PDT    2.44   2.91    7  246   13  53.2  60.4 1015.4 -9.9 -9.999 -99.9 -99.99 -9.99
2019/06/15 09:00 PDT    2.56   3.03    5  237   10  53.1  60.4 1015.5 -9.9 -9.999 -99.9 -99.99 -9.99
2019/06/15 09:06 PDT    2.67   3.13    4  264    9  53.2  60.4 1015.5 -9.9 -9.999 -99.9 -99.99 -9.99
2019/06/15 09:12 PDT    2.78   3.25    7  245   13  53.1  60.4 1015.5 -9.9 -9.999 -99.9 -99.99 -9.99
2019/06/15 09:18 PDT    2.89   3.38    4  242   10  53.2  60.4 1015.6 -9.9 -9.999 -99.9 -99.99 -9.99
2019/06/15 09:24 PDT    3.00   3.52    4  256   11  53.2  60.4 1015.6 -9.9 -9.999 -99.9 -99.99 -9.99
2019/06/15 09:30 PDT    3.11   3.60    6  255   11  53.2  60.4 1015.6 -9.9 -9.999 -99.9 -99.99 -9.99
2019/06/15 09:36 PDT    3.21   3.68    4  235    9  53.2  60.4 1015.6 -9.9 -9.999 -99.9 -99.99 -9.99
2019/06/15 09:42 PDT    3.32   3.77    6  224    8  53.2  60.4 1015.7 -9.9 -9.999 -99.9 -99.99 -9.99
2019/06/15 09:48 PDT    3.42   3.85    5  253   11  53.2  60.1 1015.7 -9.9 -9.999 -99.9 -99.99 -9.99
2019/06/15 09:54 PDT    3.51   3.97    6  248   11  53.1  59.9 1015.7 -9.9 -9.999 -99.9 -99.99 -9.99
2019/06/15 10:00 PDT    3.61   4.09    4  242   12  53.4  60.1 1015.7 -9.9 -9.999 -99.9 -99.99 -9.99
2019/06/15 10:06 PDT    3.70   4.14    4  269   10  53.4  60.3 1015.7 -9.9 -9.999 -99.9 -99.99 -9.99
2019/06/15 10:12 PDT    3.79   4.20    4  249   11  53.6  59.2 1015.7 -9.9 -9.999 -99.9 -99.99 -9.99
2019/06/15 10:18 PDT    3.88   4.27    3  250   11  53.4  59.2 1015.6 -9.9 -9.999 -99.9 -99.99 -9.99
2019/06/15 10:24 PDT    3.96   4.32    5  241   11  53.6  59.0 1015.6 -9.9 -9.999 -99.9 -99.99 -9.99
2019/06/15 10:30 PDT    4.03   4.38    4  217    9  53.6  59.0 1015.6 -9.9 -9.999 -99.9 -99.99 -9.99
2019/06/15 10:36 PDT    4.11   4.46    5  237   17  53.6  58.6 1015.7 -9.9 -9.999 -99.9 -99.99 -9.99
2019/06/15 10:42 PDT    4.17   4.52    5  265   13  53.4  58.8 1015.7 -9.9 -9.999 -99.9 -99.99 -9.99
2019/06/15 10:48 PDT    4.24   4.55    8  248   13  53.8  58.8 1015.7 -9.9 -9.999 -99.9 -99.99 -9.99
2019/06/15 10:54 PDT    4.29   4.61    8  243   12  54.0  58.8 1015.7 -9.9 -9.999 -99.9 -99.99 -9.99
2019/06/15 11:00 PDT    4.35   4.66    6  249   12  54.1  58.8 1015.8 -9.9 -9.999 -99.9 -99.99 -9.99
2019/06/15 11:06 PDT    4.39   4.71    4  235   10  54.5  58.8 1015.9 -9.9 -9.999 -99.9 -99.99 -9.99
2019/06/15 11:12 PDT    4.44   4.77    6  270   12  54.5  58.8 1015.9 -9.9 -9.999 -99.9 -99.99 -9.99
2019/06/15 11:18 PDT    4.47   4.80    6  248   11  54.5  58.8 1015.9 -9.9 -9.999 -99.9 -99.99 -9.99
2019/06/15 11:24 PDT    4.50   4.84    6  272   13  54.7  58.8 1015.9 -9.9 -9.999 -99.9 -99.99 -9.99
2019/06/15 11:30 PDT    4.53   4.84    5  277   11  54.7  58.6 1016.0 -9.9 -9.999 -99.9 -99.99 -9.99
2019/06/15 11:36 PDT    4.55   4.85    5  246   11  55.0  58.8 1016.0 -9.9 -9.999 -99.9 -99.99 -9.99
2019/06/15 11:42 PDT    4.56   4.88   10  278   15  54.9  58.8 1016.0 -9.9 -9.999 -99.9 -99.99 -9.99
2019/06/15 11:48 PDT    4.56   4.87    7  281   15  54.9  58.8 1016.0 -9.9 -9.999 -99.9 -99.99 -9.99
2019/06/15 11:54 PDT    4.57   4.88    8  249   12  54.9  58.8 1016.0 -9.9 -9.999 -99.9 -99.99 -9.99
2019/06/15 12:00 PDT    4.56   4.84    6  265   11  55.2  58.6 1016.1 -9.9 -9.999 -99.9 -99.99 -9.99
2019/06/15 12:06 PDT    4.55   4.80    6  248   14  55.2  58.5 1016.1 -9.9 -9.999 -99.9 -99.99 -9.99
2019/06/15 12:12 PDT    4.54   4.79    6  279   11  55.2  58.3 1016.1 -9.9 -9.999 -99.9 -99.99 -9.99
2019/06/15 12:18 PDT    4.51   4.78    9  277   13  54.9  58.1 1016.2 -9.9 -9.999 -99.9 -99.99 -9.99
2019/06/15 12:24 PDT    4.49   4.79    5  268   14  55.0  57.9 1016.0 -9.9 -9.999 -99.9 -99.99 -9.99
2019/06/15 12:30 PDT    4.46   4.79    6  252   10  55.4  57.7 1016.0 -9.9 -9.999 -99.9 -99.99 -9.99
2019/06/15 12:36 PDT    4.42   4.76    8  245   13  55.6  57.6 1016.0 -9.9 -9.999 -99.9 -99.99 -9.99
2019/06/15 12:42 PDT    4.38   4.70    9  248   15  55.6  57.4 1016.0 -9.9 -9.999 -99.9 -99.99 -9.99
2019/06/15 12:48 PDT    4.33   4.68    4  269   11  56.1  57.4 1016.0 -9.9 -9.999 -99.9 -99.99 -9.99
2019/06/15 12:54 PDT    4.28   4.67    7  244   12  55.8  57.4 1016.0 -9.9 -9.999 -99.9 -99.99 -9.99
2019/06/15 13:00 PDT    4.23   4.62    6  266   15  55.6  57.4 1016.0 -9.9 -9.999 -99.9 -99.99 -9.99
2019/06/15 13:06 PDT    4.17   4.54    9  241   14  55.6  57.4 1016.0 -9.9 -9.999 -99.9 -99.99 -9.99
2019/06/15 13:12 PDT    4.10   4.51    8  265   13  55.6  57.6 1016.0 -9.9 -9.999 -99.9 -99.99 -9.99
2019/06/15 13:18 PDT    4.04   4.46    6  247   13  55.8  57.6 1015.9 -9.9 -9.999 -99.9 -99.99 -9.99
2019/06/15 13:24 PDT    3.97   4.40    7  244   16  55.8  57.4 1015.9 -9.9 -9.999 -99.9 -99.99 -9.99
2019/06/15 13:30 PDT    3.90   4.38   10  251   16  55.4  57.4 1015.9 -9.9 -9.999 -99.9 -99.99 -9.99
2019/06/15 13:36 PDT    3.83   4.31    6  249   16  55.8  57.9 1016.0 -9.9 -9.999 -99.9 -99.99 -9.99
2019/06/15 13:42 PDT    3.75   4.22    7  259   14  55.8  57.7 1016.0 -9.9 -9.999 -99.9 -99.99 -9.99
2019/06/15 13:48 PDT    3.68   4.13   11  259   16  55.9  57.6 1015.9 -9.9 -9.999 -99.9 -99.99 -9.99
2019/06/15 13:54 PDT    3.60   4.06    7  260   15  55.9  57.6 1015.9 -9.9 -9.999 -99.9 -99.99 -9.99
2019/06/15 14:00 PDT    3.52   4.01    6  255   15  56.1  57.6 1015.8 -9.9 -9.999 -99.9 -99.99 -9.99
2019/06/15 14:06 PDT    3.44   3.94    7  255   15  56.5  57.6 1015.7 -9.9 -9.999 -99.9 -99.99 -9.99
2019/06/15 14:12 PDT    3.36   3.84   10  268   16  56.1  57.4 1015.7 -9.9 -9.999 -99.9 -99.99 -9.99
2019/06/15 14:18 PDT    3.29   3.73    9  264   13  56.3  57.6 1015.6 -9.9 -9.999 -99.9 -99.99 -9.99
2019/06/15 14:24 PDT    3.21   3.62   10  235   14  56.3  57.6 1015.5 -9.9 -9.999 -99.9 -99.99 -9.99
2019/06/15 14:30 PDT    3.13   3.55   11  256   16  56.3  57.6 1015.5 -9.9 -9.999 -99.9 -99.99 -9.99
2019/06/15 14:36 PDT    3.06   3.53    9  249   15  56.5  57.6 1015.4 -9.9 -9.999 -99.9 -99.99 -9.99
2019/06/15 14:42 PDT    2.99   3.47    9  242   16  56.3  57.4 1015.3 -9.9 -9.999 -99.9 -99.99 -9.99
2019/06/15 14:48 PDT    2.92   3.37    9  246   16  55.9  57.4 1015.3 -9.9 -9.999 -99.9 -99.99 -9.99
2019/06/15 14:54 PDT    2.85   3.30    8  261   13  56.1  57.6 1015.2 -9.9 -9.999 -99.9 -99.99 -9.99
2019/06/15 15:00 PDT    2.78   3.23    8  255   13  56.1  57.6 1015.2 -9.9 -9.999 -99.9 -99.99 -9.99
2019/06/15 15:06 PDT    2.72   3.14    8  254   13  56.3  57.7 1015.2 -9.9 -9.999 -99.9 -99.99 -9.99
2019/06/15 15:12 PDT    2.67   3.06    8  262   12  56.3  58.1 1015.2 -9.9 -9.999 -99.9 -99.99 -9.99
2019/06/15 15:18 PDT    2.61   3.00   10  243   18  55.9  58.3 1015.2 -9.9 -9.999 -99.9 -99.99 -9.99
2019/06/15 15:24 PDT    2.56   2.93    5  264   14  56.3  58.3 1015.1 -9.9 -9.999 -99.9 -99.99 -9.99
2019/06/15 15:30 PDT    2.51   2.86    6  242   15  56.3  58.5 1015.1 -9.9 -9.999 -99.9 -99.99 -9.99
2019/06/15 15:36 PDT    2.47   2.84    8  255   13  56.5  58.6 1015.1 -9.9 -9.999 -99.9 -99.99 -9.99
2019/06/15 15:42 PDT    2.43   2.82    8  283   15  56.3  58.8 1015.0 -9.9 -9.999 -99.9 -99.99 -9.99
2019/06/15 15:48 PDT    2.40   2.77    9  286   15  55.9  58.8 1014.9 -9.9 -9.999 -99.9 -99.99 -9.99
2019/06/15 15:54 PDT    2.37   2.72    5  267   13  56.5  59.0 1014.9 -9.9 -9.999 -99.9 -99.99 -9.99
2019/06/15 16:00 PDT    2.35   2.67    5  260   10  56.7  59.0 1014.9 -9.9 -9.999 -99.9 -99.99 -9.99
2019/06/15 16:06 PDT    2.33   2.64    6  245   12  56.5  59.0 1014.8 -9.9 -9.999 -99.9 -99.99 -9.99
2019/06/15 16:12 PDT    2.31   2.59    7  270   13  56.3  59.0 1014.8 -9.9 -9.999 -99.9 -99.99 -9.99
2019/06/15 16:18 PDT    2.30   2.57    8  246   16  55.9  59.2 1014.7 -9.9 -9.999 -99.9 -99.99 -9.99
2019/06/15 16:24 PDT    2.30   2.60    5  260   11  56.3  59.2 1014.7 -9.9 -9.999 -99.9 -99.99 -9.99
2019/06/15 16:30 PDT    2.30   2.57   10  233   15  55.8  59.2 1014.6 -9.9 -9.999 -99.9 -99.99 -9.99
2019/06/15 16:36 PDT    2.30   2.58   10  265   17  55.6  59.2 1014.5 -9.9 -9.999 -99.9 -99.99 -9.99
2019/06/15 16:42 PDT    2.31   2.59   10  268   14  55.8  59.2 1014.4 -9.9 -9.999 -99.9 -99.99 -9.99
2019/06/15 16:48 PDT    2.33   2.56    6  247   11  55.9  59.2 1014.4 -9.9 -9.999 -99.9 -99.99 -9.99
2019/06/15 16:54 PDT    2.35   2.60    6  283   11  55.9  59.2 1014.3 -9.9 -9.999 -99.9 -99.99 -9.99
2019/06/15 17:00 PDT    2.37   2.63    8  263   16  55.8  59.2 1014.3 -9.9 -9.999 -99.9 -99.99 -9.99
2019/06/15 17:06 PDT    2.40   2.66    6  264   12  55.8  59.2 1014.4 -9.9 -9.999 -99.9 -99.99 -9.99
2019/06/15 17:12 PDT    2.44   2.70    8  251   11  55.6  59.2 1014.3 -9.9 -9.999 -99.9 -99.99 -9.99
2019/06/15 17:18 PDT    2.48   2.72    6  255   12  55.4  59.2 1014.3 -9.9 -9.999 -99.9 -99.99 -9.99
2019/06/15 17:24 PDT    2.52   2.73    8  245   14  55.4  59.2 1014.2 -9.9 -9.999 -99.9 -99.99 -9.99
2019/06/15 17:30 PDT    2.57   2.78    8  257   17  55.6  59.4 1014.1 -9.9 -9.999 -99.9 -99.99 -9.99
2019/06/15 17:36 PDT    2.62   2.87   10  274   19  55.0  59.4 1014.0 -9.9 -9.999 -99.9 -99.99 -9.99
2019/06/15 17:42 PDT    2.68   2.95    7  270   13  55.2  59.4 1014.0 -9.9 -9.999 -99.9 -99.99 -9.99
2019/06/15 17:48 PDT    2.74   2.98    9  261   14  55.0  59.4 1014.0 -9.9 -9.999 -99.9 -99.99 -9.99
2019/06/15 17:54 PDT    2.80   3.04    6  256   17  55.2  59.4 1014.0 -9.9 -9.999 -99.9 -99.99 -9.99
2019/06/15 18:00 PDT    2.87   3.07    9  273   15  55.2  59.4 1014.1 -9.9 -9.999 -99.9 -99.99 -9.99
2019/06/15 18:06 PDT    2.94   3.13   10  273   14  54.9  59.2 1014.1 -9.9 -9.999 -99.9 -99.99 -9.99
2019/06/15 18:12 PDT    3.02   3.19    6  282   14  54.9  59.0 1014.0 -9.9 -9.999 -99.9 -99.99 -9.99
2019/06/15 18:18 PDT    3.10   3.28    7  264   14  54.9  58.8 1014.0 -9.9 -9.999 -99.9 -99.99 -9.99
2019/06/15 18:24 PDT    3.18   3.37    7  251   13  54.7  58.8 1014.1 -9.9 -9.999 -99.9 -99.99 -9.99
2019/06/15 18:30 PDT    3.26   3.43    8  275   13  54.7  58.8 1014.1 -9.9 -9.999 -99.9 -99.99 -9.99
2019/06/15 18:36 PDT    3.35   3.53    9  272   15  54.7  58.6 1014.1 -9.9 -9.999 -99.9 -99.99 -9.99
2019/06/15 18:42 PDT    3.44   3.66    6  238   13  54.7  58.6 1014.1 -9.9 -9.999 -99.9 -99.99 -9.99
2019/06/15 18:48 PDT    3.53   3.77    6  275   12  54.7  58.6 1014.1 -9.9 -9.999 -99.9 -99.99 -9.99
2019/06/15 18:54 PDT    3.63   3.85    6  268   13  54.5  58.6 1014.1 -9.9 -9.999 -99.9 -99.99 -9.99
2019/06/15 19:00 PDT    3.72   3.93   10  253   14  54.3  58.6 1014.1 -9.9 -9.999 -99.9 -99.99 -9.99
2019/06/15 19:06 PDT    3.82   3.99    9  263   18  54.3  58.6 1014.0 -9.9 -9.999 -99.9 -99.99 -9.99
2019/06/15 19:12 PDT    3.92   4.07    8  263   14  54.5  58.6 1014.0 -9.9 -9.999 -99.9 -99.99 -9.99
2019/06/15 19:18 PDT    4.01   4.13   10  254   13  54.5  58.6 1013.9 -9.9 -9.999 -99.9 -99.99 -9.99
2019/06/15 19:24 PDT    4.11   4.24    9  272   16  54.5  58.5 1013.9 -9.9 -9.999 -99.9 -99.99 -9.99
2019/06/15 19:30 PDT    4.21   4.32   11  265   14  54.5  58.5 1013.9 -9.9 -9.999 -99.9 -99.99 -9.99
2019/06/15 19:36 PDT    4.31   4.38    7  263   12  54.5  58.5 1014.0 -9.9 -9.999 -99.9 -99.99 -9.99
2019/06/15 19:42 PDT    4.41   4.46    6  260    9  54.3  58.6 1014.0 -9.9 -9.999 -99.9 -99.99 -9.99
2019/06/15 19:48 PDT    4.51   4.60    7  261   14  54.1  58.5 1014.0 -9.9 -9.999 -99.9 -99.99 -9.99
2019/06/15 19:54 PDT    4.61   4.74    4  265   13  54.1  58.5 1014.0 -9.9 -9.999 -99.9 -99.99 -9.99
2019/06/15 20:00 PDT    4.71   4.83    3  267   10  54.1  58.5 1014.0 -9.9 -9.999 -99.9 -99.99 -9.99
2019/06/15 20:06 PDT    4.81   4.96    6  251   13  54.1  58.5 1014.0 -9.9 -9.999 -99.9 -99.99 -9.99
2019/06/15 20:12 PDT    4.91   5.04    7  247   11  54.0  58.5 1014.0 -9.9 -9.999 -99.9 -99.99 -9.99
2019/06/15 20:18 PDT    5.00   5.09    3  219   12  54.0  58.5 1014.1 -9.9 -9.999 -99.9 -99.99 -9.99
2019/06/15 20:24 PDT    5.10   5.21    8  256   15  53.8  58.5 1014.1 -9.9 -9.999 -99.9 -99.99 -9.99
2019/06/15 20:30 PDT    5.19   5.31    7  248   12  53.8  58.5 1014.2 -9.9 -9.999 -99.9 -99.99 -9.99
2019/06/15 20:36 PDT    5.28   5.43    6  253   12  53.8  58.5 1014.2 -9.9 -9.999 -99.9 -99.99 -9.99
2019/06/15 20:42 PDT    5.38   5.52    8  262   14  53.4  58.5 1014.3 -9.9 -9.999 -99.9 -99.99 -9.99
2019/06/15 20:48 PDT    5.46   5.62    5  234   10  53.6  58.5 1014.4 -9.9 -9.999 -99.9 -99.99 -9.99
2019/06/15 20:54 PDT    5.55   5.73    6  250   12  53.4  58.5 1014.3 -9.9 -9.999 -99.9 -99.99 -9.99
2019/06/15 21:00 PDT    5.63   5.79    9  248   13  53.4  58.5 1014.3 -9.9 -9.999 -99.9 -99.99 -9.99
2019/06/15 21:06 PDT    5.72   5.88    9  260   14  53.2  58.5 1014.3 -9.9 -9.999 -99.9 -99.99 -9.99
2019/06/15 21:12 PDT    5.80   5.97    5  258   11  53.2  58.5 1014.4 -9.9 -9.999 -99.9 -99.99 -9.99
2019/06/15 21:18 PDT    5.87   6.01    4  261   12  53.2  58.5 1014.4 -9.9 -9.999 -99.9 -99.99 -9.99
2019/06/15 21:24 PDT    5.94   6.07    5  259   10  53.1  58.5 1014.5 -9.9 -9.999 -99.9 -99.99 -9.99
2019/06/15 21:30 PDT    6.01   6.15    8  261   13  53.1  57.9 1014.5 -9.9 -9.999 -99.9 -99.99 -9.99
2019/06/15 21:36 PDT    6.08   6.24    6  247   11  53.1  57.2 1014.5 -9.9 -9.999 -99.9 -99.99 -9.99
2019/06/15 21:42 PDT    6.14   6.33    7  254   13  53.1  57.0 1014.5 -9.9 -9.999 -99.9 -99.99 -9.99
2019/06/15 21:48 PDT    6.20   6.38    8  231   12  53.2  57.0 1014.6 -9.9 -9.999 -99.9 -99.99 -9.99
2019/06/15 21:54 PDT    6.26   6.42    7  240   14  53.1  56.8 1014.6 -9.9 -9.999 -99.9 -99.99 -9.99
2019/06/15 22:00 PDT    6.31   6.46    5  239   11  53.1  56.8 1014.6 -9.9 -9.999 -99.9 -99.99 -9.99
2019/06/15 22:06 PDT    6.35   6.51    4  236   13  53.2  56.8 1014.6 -9.9 -9.999 -99.9 -99.99 -9.99
2019/06/15 22:12 PDT    6.39   6.57    5  241   10  53.1  56.8 1014.5 -9.9 -9.999 -99.9 -99.99 -9.99
2019/06/15 22:18 PDT    6.43   6.62    6  270   11  53.1  56.8 1014.5 -9.9 -9.999 -99.9 -99.99 -9.99
2019/06/15 22:24 PDT    6.46   6.62    4  241   10  53.2  56.8 1014.5 -9.9 -9.999 -99.9 -99.99 -9.99
2019/06/15 22:30 PDT    6.48   6.62    3  238    6  53.4  56.8 1014.6 -9.9 -9.999 -99.9 -99.99 -9.99
2019/06/15 22:36 PDT    6.50   6.64    4  229    6  53.4  57.0 1014.5 -9.9 -9.999 -99.9 -99.99 -9.99
2019/06/15 22:42 PDT    6.51   6.66    6  253   11  53.2  56.8 1014.5 -9.9 -9.999 -99.9 -99.99 -9.99
2019/06/15 22:48 PDT    6.51   6.70    6  251    9  53.4  56.8 1014.5 -9.9 -9.999 -99.9 -99.99 -9.99
2019/06/15 22:54 PDT    6.51   6.74    4  242    6  53.4  56.8 1014.5 -9.9 -9.999 -99.9 -99.99 -9.99
2019/06/15 23:00 PDT    6.50   6.73    4  239    8  53.2  56.8 1014.5 -9.9 -9.999 -99.9 -99.99 -9.99
2019/06/15 23:06 PDT    6.49   6.72    4  279    9  53.2  56.7 1014.5 -9.9 -9.999 -99.9 -99.99 -9.99
2019/06/15 23:12 PDT    6.46   6.72    6  235   11  53.2  56.7 1014.6 -9.9 -9.999 -99.9 -99.99 -9.99
2019/06/15 23:18 PDT    6.43   6.69    6  237    9  53.4  56.3 1014.6 -9.9 -9.999 -99.9 -99.99 -9.99
2019/06/15 23:24 PDT    6.39   6.65    2  264   12  53.4  56.3 1014.5 -9.9 -9.999 -99.9 -99.99 -9.99
2019/06/15 23:30 PDT    6.35   6.62    5  256   13  53.2  56.1 1014.4 -9.9 -9.999 -99.9 -99.99 -9.99
2019/06/15 23:36 PDT    6.30   6.57    3  265   10  53.2  56.1 1014.3 -9.9 -9.999 -99.9 -99.99 -9.99
2019/06/15 23:42 PDT    6.24   6.53    3  299    8  53.2  56.1 1014.3 -9.9 -9.999 -99.9 -99.99 -9.99
2019/06/15 23:48 PDT    6.17   6.47    6  251   10  53.1  56.1 1014.2 -9.9 -9.999 -99.9 -99.99 -9.99
2019/06/15 23:54 PDT    6.09   6.39    5  264    9  53.1  56.1 1014.2 -9.9 -9.999 -99.9 -99.99 -9.99
2019/06/16 00:00 PDT    6.01   6.31    5  215   11  53.1  56.1 1014.1 -9.9 -9.999 -99.9 -99.99 -9.99
2019/06/16 00:06 PDT    5.92   6.20    6  288   12  53.2  56.1 1014.1 -9.9 -9.999 -99.9 -99.99 -9.99
2019/06/16 00:12 PDT    5.82   6.11    5  251    9  53.2  56.1 1014.1 -9.9 -9.999 -99.9 -99.99 -9.99
2019/06/16 00:18 PDT    5.72   6.00    5  270   10  53.1  55.9 1014.0 -9.9 -9.999 -99.9 -99.99 -9.99
2019/06/16 00:24 PDT    5.61   5.88    3  259   10  52.9  55.9 1013.9 -9.9 -9.999 -99.9 -99.99 -9.99
2019/06/16 00:30 PDT    5.49   5.77    4  245    8  52.9  55.9 1013.9 -9.9 -9.999 -99.9 -99.99 -9.99
2019/06/16 00:36 PDT    5.37   5.66    3  237    6  52.9  55.9 1014.0 -9.9 -9.999 -99.9 -99.99 -9.99
2019/06/16 00:42 PDT    5.24   5.50    5  256    8  52.9  55.9 1013.9 -9.9 -9.999 -99.9 -99.99 -9.99
2019/06/16 00:48 PDT    5.10   5.36    2  195    7  53.1  55.9 1013.9 -9.9 -9.999 -99.9 -99.99 -9.99
2019/06/16 00:54 PDT    4.96   5.22    3  252   10  52.9  55.9 1013.9 -9.9 -9.999 -99.9 -99.99 -9.99
2019/06/16 01:00 PDT    4.82   5.09    3  235    5  52.9  55.8 1013.9 -9.9 -9.999 -99.9 -99.99 -9.99
2019/06/16 01:06 PDT    4.67   4.94    3  267    7  52.9  55.8 1013.8 -9.9 -9.999 -99.9 -99.99 -9.99
2019/06/16 01:12 PDT    4.51   4.80    6  255   10  52.9  55.8 1013.7 -9.9 -9.999 -99.9 -99.99 -9.99
2019/06/16 01:18 PDT    4.35   4.67    5  245    9  52.7  55.8 1013.7 -9.9 -9.999 -99.9 -99.99 -9.99
2019/06/16 01:24 PDT    4.18   4.52    4  246    9  52.7  55.8 1013.7 -9.9 -9.999 -99.9 -99.99 -9.99
2019/06/16 01:30 PDT    4.02   4.36    4  240    6  52.7  55.8 1013.7 -9.9 -9.999 -99.9 -99.99 -9.99
2019/06/16 01:36 PDT    3.85   4.18    3  231    6  52.7  55.8 1013.6 -9.9 -9.999 -99.9 -99.99 -9.99
2019/06/16 01:42 PDT    3.67   3.99    2  267    8  52.7  55.8 1013.7 -9.9 -9.999 -99.9 -99.99 -9.99
2019/06/16 01:48 PDT    3.50   3.76    6  240   12  52.5  55.8 1013.6 -9.9 -9.999 -99.9 -99.99 -9.99
2019/06/16 01:54 PDT    3.32   3.57    4  229   11  52.2  55.8 1013.5 -9.9 -9.999 -99.9 -99.99 -9.99
2019/06/16 02:00 PDT    3.14   3.34    2  206    6  52.2  55.8 1013.5 -9.9 -9.999 -99.9 -99.99 -9.99
2019/06/16 02:06 PDT    2.96   3.15    2  271    6  52.3  55.8 1013.5 -9.9 -9.999 -99.9 -99.99 -9.99
2019/06/16 02:12 PDT    2.78   2.95    4  225    8  52.3  55.8 1013.4 -9.9 -9.999 -99.9 -99.99 -9.99
2019/06/16 02:18 PDT    2.60   2.80    2  233    4  52.3  55.8 1013.3 -9.9 -9.999 -99.9 -99.99 -9.99
2019/06/16 02:24 PDT    2.42   2.58    6  277   11  52.3  55.8 1013.3 -9.9 -9.999 -99.9 -99.99 -9.99
2019/06/16 02:30 PDT    2.24   2.38    6  220   11  52.2  55.9 1013.3 -9.9 -9.999 -99.9 -99.99 -9.99
2019/06/16 02:36 PDT    2.07   2.22    6  243   10  52.3  55.8 1013.3 -9.9 -9.999 -99.9 -99.99 -9.99
2019/06/16 02:42 PDT    1.89   2.06    6  274    9  52.3  55.9 1013.3 -9.9 -9.999 -99.9 -99.99 -9.99
2019/06/16 02:48 PDT    1.72   1.90    3  255    8  52.3  55.9 1013.3 -9.9 -9.999 -99.9 -99.99 -9.99
2019/06/16 02:54 PDT    1.55   1.74    5  280    7  52.3  55.9 1013.2 -9.9 -9.999 -99.9 -99.99 -9.99
2019/06/16 03:00 PDT    1.39   1.62    4  235    7  52.5  55.9 1013.2 -9.9 -9.999 -99.9 -99.99 -9.99
2019/06/16 03:06 PDT    1.22   1.48    6  249   11  52.3  55.9 1013.2 -9.9 -9.999 -99.9 -99.99 -9.99
2019/06/16 03:12 PDT    1.07   1.38    5  221    9  52.3  55.9 1013.2 -9.9 -9.999 -99.9 -99.99 -9.99
2019/06/16 03:18 PDT    0.91   1.26    5  272   10  52.5  56.1 1013.2 -9.9 -9.999 -99.9 -99.99 -9.99
2019/06/16 03:24 PDT    0.76   1.11    4  224    8  52.5  56.1 1013.2 -9.9 -9.999 -99.9 -99.99 -9.99
2019/06/16 03:30 PDT    0.62   0.98    4  242    7  52.5  56.1 1013.2 -9.9 -9.999 -99.9 -99.99 -9.99
2019/06/16 03:36 PDT    0.48   0.86    3  231    6  52.7  56.1 1013.2 -9.9 -9.999 -99.9 -99.99 -9.99
2019/06/16 03:42 PDT    0.35   0.72    4  245    9  52.5  56.1 1013.2 -9.9 -9.999 -99.9 -99.99 -9.99
2019/06/16 03:48 PDT    0.22   0.59    8  239   12  52.5  56.1 1013.2 -9.9 -9.999 -99.9 -99.99 -9.99
2019/06/16 03:54 PDT    0.10   0.47    3  258    9  52.5  56.1 1013.2 -9.9 -9.999 -99.9 -99.99 -9.99
2019/06/16 04:00 PDT   -0.01   0.34    2  243    6  52.5  56.1 1013.2 -9.9 -9.999 -99.9 -99.99 -9.99
2019/06/16 04:06 PDT   -0.12   0.25    7  258   11  52.5  56.1 1013.2 -9.9 -9.999 -99.9 -99.99 -9.99
2019/06/16 04:12 PDT   -0.22   0.14    5  240    8  52.5  56.1 1013.2 -9.9 -9.999 -99.9 -99.99 -9.99
2019/06/16 04:18 PDT   -0.31   0.06    4  264   10  52.3  55.9 1013.3 -9.9 -9.999 -99.9 -99.99 -9.99
2019/06/16 04:24 PDT   -0.40  -0.00    2  272   10  52.3  55.9 1013.3 -9.9 -9.999 -99.9 -99.99 -9.99
2019/06/16 04:30 PDT   -0.48  -0.08    3  225    7  52.3  55.9 1013.2 -9.9 -9.999 -99.9 -99.99 -9.99
2019/06/16 04:36 PDT   -0.56  -0.17    6  216    9  52.3  55.9 1013.2 -9.9 -9.999 -99.9 -99.99 -9.99
2019/06/16 04:42 PDT   -0.62  -0.22    2  232    6  52.5  55.9 1013.2 -9.9 -9.999 -99.9 -99.99 -9.99
2019/06/16 04:48 PDT   -0.69  -0.27    3  257    8  52.5  55.9 1013.2 -9.9 -9.999 -99.9 -99.99 -9.99
2019/06/16 04:54 PDT   -0.74  -0.34    4  254   11  52.3  56.1 1013.2 -9.9 -9.999 -99.9 -99.99 -9.99
2019/06/16 05:00 PDT   -0.79  -0.40    5  218    9  52.3  56.5 1013.2 -9.9 -9.999 -99.9 -99.99 -9.99
2019/06/16 05:06 PDT   -0.82  -0.43    6  212   10  52.3  56.8 1013.3 -9.9 -9.999 -99.9 -99.99 -9.99
2019/06/16 05:12 PDT   -0.86  -0.44    4  276    8  52.3  57.4 1013.3 -9.9 -9.999 -99.9 -99.99 -9.99
2019/06/16 05:18 PDT   -0.88  -0.47    4  225    7  52.5  57.4 1013.3 -9.9 -9.999 -99.9 -99.99 -9.99
2019/06/16 05:24 PDT   -0.90  -0.47    4  190    8  52.5  57.7 1013.3 -9.9 -9.999 -99.9 -99.99 -9.99
2019/06/16 05:30 PDT   -0.92  -0.47    3  209    6  52.5  57.7 1013.4 -9.9 -9.999 -99.9 -99.99 -9.99
2019/06/16 05:36 PDT   -0.92  -0.48    5  229    7  52.3  57.6 1013.4 -9.9 -9.999 -99.9 -99.99 -9.99
2019/06/16 05:42 PDT   -0.92  -0.48    6  223    9  52.3  57.6 1013.4 -9.9 -9.999 -99.9 -99.99 -9.99
2019/06/16 05:48 PDT   -0.92  -0.46    5  236   11  52.3  57.7 1013.4 -9.9 -9.999 -99.9 -99.99 -9.99
2019/06/16 05:54 PDT   -0.90  -0.46    5  194    9  52.3  57.9 1013.4 -9.9 -9.999 -99.9 -99.99 -9.99
2019/06/16 06:00 PDT   -0.89  -0.46    3  203    9  52.5  58.1 1013.4 -9.9 -9.999 -99.9 -99.99 -9.99
2019/06/16 06:06 PDT   -0.86  -0.45    5  183    8  52.5  58.3 1013.4 -9.9 -9.999 -99.9 -99.99 -9.99
2019/06/16 06:12 PDT   -0.83  -0.44    7  219    9  52.5  58.5 1013.5 -9.9 -9.999 -99.9 -99.99 -9.99
2019/06/16 06:18 PDT   -0.79  -0.40    6  216   10  52.5  58.5 1013.5 -9.9 -9.999 -99.9 -99.99 -9.99
2019/06/16 06:24 PDT   -0.75  -0.35    5  208    7  52.5  58.6 1013.5 -9.9 -9.999 -99.9 -99.99 -9.99
2019/06/16 06:30 PDT   -0.71  -0.29    4  220    9  52.5  58.6 1013.5 -9.9 -9.999 -99.9 -99.99 -9.99
2019/06/16 06:36 PDT   -0.65  -0.26    5  210    8  52.5  58.8 1013.5 -9.9 -9.999 -99.9 -99.99 -9.99
2019/06/16 06:42 PDT   -0.60  -0.20    6  199    8  52.5  59.0 1013.6 -9.9 -9.999 -99.9 -99.99 -9.99
2019/06/16 06:48 PDT   -0.54  -0.15    5  210    9  52.7  59.2 1013.6 -9.9 -9.999 -99.9 -99.99 -9.99
2019/06/16 06:54 PDT   -0.47  -0.07    5  256    9  52.7  59.2 1013.7 -9.9 -9.999 -99.9 -99.99 -9.99
2019/06/16 07:00 PDT   -0.40   0.00    3  226    5  52.7  59.5 1013.7 -9.9 -9.999 -99.9 -99.99 -9.99
2019/06/16 07:06 PDT   -0.33   0.06    5  224    7  52.5  59.5 1013.7 -9.9 -9.999 -99.9 -99.99 -9.99
2019/06/16 07:12 PDT   -0.25   0.14    4  219    8  52.3  59.4 1013.6 -9.9 -9.999 -99.9 -99.99 -9.99
2019/06/16 07:18 PDT   -0.17   0.26    5  209    7  52.5  59.4 1013.6 -9.9 -9.999 -99.9 -99.99 -9.99
2019/06/16 07:24 PDT   -0.08   0.36    5  227    9  52.5  59.7 1013.6 -9.9 -9.999 -99.9 -99.99 -9.99
2019/06/16 07:30 PDT    0.01   0.42    5  219    7  52.5  60.1 1013.6 -9.9 -9.999 -99.9 -99.99 -9.99
2019/06/16 07:36 PDT    0.10   0.48    4  232    8  52.5  60.3 1013.6 -9.9 -9.999 -99.9 -99.99 -9.99
2019/06/16 07:42 PDT    0.19   0.56    5  218    9  52.3  60.3 1013.6 -9.9 -9.999 -99.9 -99.99 -9.99
2019/06/16 07:48 PDT    0.29   0.67    4  207    8  52.3  60.3 1013.6 -9.9 -9.999 -99.9 -99.99 -9.99
2019/06/16 07:54 PDT    0.39   0.79    4  208    7  52.3  60.4 1013.6 -9.9 -9.999 -99.9 -99.99 -9.99
2019/06/16 08:00 PDT    0.49   0.91    5  206    7  52.5  60.6 1013.7 -9.9 -9.999 -99.9 -99.99 -9.99
2019/06/16 08:06 PDT    0.59   1.01    6  223    8  52.5  60.6 1013.7 -9.9 -9.999 -99.9 -99.99 -9.99
2019/06/16 08:12 PDT    0.70   1.12    4  203    9  52.5  60.6 1013.8 -9.9 -9.999 -99.9 -99.99 -9.99
2019/06/16 08:18 PDT    0.81   1.21    4  244    7  52.7  60.8 1013.8 -9.9 -9.999 -99.9 -99.99 -9.99
2019/06/16 08:24 PDT    0.92   1.34    6  233   11  52.5  60.8 1013.8 -9.9 -9.999 -99.9 -99.99 -9.99
2019/06/16 08:30 PDT    1.03   1.45    6  223   10  52.5  60.8 1013.8 -9.9 -9.999 -99.9 -99.99 -9.99
2019/06/16 08:36 PDT    1.14   1.58    6  236    9  52.5  60.8 1013.8 -9.9 -9.999 -99.9 -99.99 -9.99
2019/06/16 08:42 PDT    1.25   1.71    3  215    7  52.9  60.8 1013.8 -9.9 -9.999 -99.9 -99.99 -9.99
2019/06/16 08:48 PDT    1.36   1.85    6  229    9  52.9  60.8 1013.8 -9.9 -9.999 -99.9 -99.99 -9.99
2019/06/16 08:54 PDT    1.48   2.00    3  229   10  52.9  60.8 1013.8 -9.9 -9.999 -99.9 -99.99 -9.99
2019/06/16 09:00 PDT    1.59   2.12    6  225    8  52.9  60.8 1013.9 -9.9 -9.999 -99.9 -99.99 -9.99
2019/06/16 09:06 PDT    1.71   2.22    8  228   10  52.7  60.8 1013.8 -9.9 -9.999 -99.9 -99.99 -9.99
2019/06/16 09:12 PDT    1.83   2.35    3  191    8  53.1  60.8 1013.8 -9.9 -9.999 -99.9 -99.99 -9.99
2019/06/16 09:18 PDT    1.94   2.46    7  224    9  53.1  60.6 1013.7 -9.9 -9.999 -99.9 -99.99 -9.99
2019/06/16 09:24 PDT    2.06   2.53    3  191    7  53.4  60.6 1013.7 -9.9 -9.999 -99.9 -99.99 -9.99
2019/06/16 09:30 PDT    2.18   2.65    5  194    8  53.4  60.8 1013.7 -9.9 -9.999 -99.9 -99.99 -9.99
2019/06/16 09:36 PDT    2.30   2.76    5  208    9  53.4  60.6 1013.7 -9.9 -9.999 -99.9 -99.99 -9.99
2019/06/16 09:42 PDT    2.41   2.87    6  232   10  53.2  60.8 1013.6 -9.9 -9.999 -99.9 -99.99 -9.99
2019/06/16 09:48 PDT    2.53   2.98    3  213    9  53.2  60.8 1013.5 -9.9 -9.999 -99.9 -99.99 -9.99
2019/06/16 09:54 PDT    2.65   3.14    5  193    9  53.4  60.6 1013.5 -9.9 -9.999 -99.9 -99.99 -9.99
2019/06/16 10:00 PDT    2.76   3.24    4  231    8  53.6  60.6 1013.5 -9.9 -9.999 -99.9 -99.99 -9.99
2019/06/16 10:06 PDT    2.88   3.34    7  209   10  53.4  60.6 1013.4 -9.9 -9.999 -99.9 -99.99 -9.99
2019/06/16 10:12 PDT    2.99   3.49    5  235   10  53.6  60.6 1013.4 -9.9 -9.999 -99.9 -99.99 -9.99
2019/06/16 10:18 PDT    3.11   3.62    4  241    9  53.6  60.6 1013.5 -9.9 -9.999 -99.9 -99.99 -9.99
2019/06/16 10:24 PDT    3.22   3.72    6  216   11  53.6  60.6 1013.4 -9.9 -9.999 -99.9 -99.99 -9.99
2019/06/16 10:30 PDT    3.32   3.83    6  258    9  53.6  60.6 1013.4 -9.9 -9.999 -99.9 -99.99 -9.99
2019/06/16 10:36 PDT    3.43   3.93    5  214   13  53.6  60.4 1013.5 -9.9 -9.999 -99.9 -99.99 -9.99
2019/06/16 10:42 PDT    3.53   3.99    6  245   11  53.6  60.1 1013.5 -9.9 -9.999 -99.9 -99.99 -9.99
2019/06/16 10:48 PDT    3.63   4.08    7  223   11  53.6  59.7 1013.5 -9.9 -9.999 -99.9 -99.99 -9.99
2019/06/16 10:54 PDT    3.73   4.18    6  234    9  53.6  59.5 1013.4 -9.9 -9.999 -99.9 -99.99 -9.99
2019/06/16 11:00 PDT    3.83   4.25    6  255   10  53.6  59.4 1013.5 -9.9 -9.999 -99.9 -99.99 -9.99
2019/06/16 11:06 PDT    3.92   4.31    5  251   13  53.8  59.2 1013.5 -9.9 -9.999 -99.9 -99.99 -9.99
2019/06/16 11:12 PDT    4.00   4.37    6  233   13  53.8  59.0 1013.5 -9.9 -9.999 -99.9 -99.99 -9.99
2019/06/16 11:18 PDT    4.09   4.46    5  245   10  54.1  58.8 1013.5 -9.9 -9.999 -99.9 -99.99 -9.99
2019/06/16 11:24 PDT    4.16   4.50    5  268    8  54.1  58.8 1013.5 -9.9 -9.999 -99.9 -99.99 -9.99
2019/06/16 11:30 PDT    4.24   4.57    4  230    9  54.1  58.8 1013.6 -9.9 -9.999 -99.9 -99.99 -9.99
2019/06/16 11:36 PDT    4.30   4.62    7  226   12  53.8  58.8 1013.6 -9.9 -9.999 -99.9 -99.99 -9.99
2019/06/16 11:42 PDT    4.37   4.69    4  232   12  54.1  58.6 1013.6 -9.9 -9.999 -99.9 -99.99 -9.99
2019/06/16 11:48 PDT    4.43   4.75    8  225   12  54.3  58.6 1013.6 -9.9 -9.999 -99.9 -99.99 -9.99
2019/06/16 11:54 PDT    4.48   4.76    7  221   14  54.1  58.6 1013.5 -9.9 -9.999 -99.9 -99.99 -9.99
2019/06/16 12:00 PDT    4.53   4.81    5  226   11  54.3  58.6 1013.5 -9.9 -9.999 -99.9 -99.99 -9.99
2019/06/16 12:06 PDT    4.57   4.87    7  211   13  54.3  58.6 1013.5 -9.9 -9.999 -99.9 -99.99 -9.99
2019/06/16 12:12 PDT    4.60   4.90    6  270   11  54.3  58.6 1013.4 -9.9 -9.999 -99.9 -99.99 -9.99
2019/06/16 12:18 PDT    4.63   4.98    3  254    9  54.3  58.6 1013.4 -9.9 -9.999 -99.9 -99.99 -9.99
2019/06/16 12:24 PDT    4.66   5.00    5  227   11  54.5  58.6 1013.4 -9.9 -9.999 -99.9 -99.99 -9.99
2019/06/16 12:30 PDT    4.67   5.00    4  232   10  54.5  58.6 1013.4 -9.9 -9.999 -99.9 -99.99 -9.99
2019/06/16 12:36 PDT    4.69   5.02    7  269   12  54.1  58.6 1013.3 -9.9 -9.999 -99.9 -99.99 -9.99
2019/06/16 12:42 PDT    4.69   5.01    4  257   12  54.3  58.3 1013.2 -9.9 -9.999 -99.9 -99.99 -9.99
2019/06/16 12:48 PDT    4.69   5.00    7  221    9  54.7  57.9 1013.2 -9.9 -9.999 -99.9 -99.99 -9.99
2019/06/16 12:54 PDT    4.69   5.00    5  280   11  54.7  57.6 1013.1 -9.9 -9.999 -99.9 -99.99 -9.99
2019/06/16 13:00 PDT    4.68   4.98    7  237   16  54.3  57.4 1013.1 -9.9 -9.999 -99.9 -99.99 -9.99
2019/06/16 13:06 PDT    4.66   4.96    5  238   14  54.5  57.0 1013.1 -9.9 -9.999 -99.9 -99.99 -9.99
2019/06/16 13:12 PDT    4.64   4.97    4  240    9  54.9  57.0 1013.1 -9.9 -9.999 -99.9 -99.99 -9.99
2019/06/16 13:18 PDT    4.62   4.96    8  262   15  54.5  56.8 1013.1 -9.9 -9.999 -99.9 -99.99 -9.99
2019/06/16 13:24 PDT    4.58   4.92    7  271   12  54.5  56.8 1013.0 -9.9 -9.999 -99.9 -99.99 -9.99
2019/06/16 13:30 PDT    4.55   4.88    7  247   12  54.7  56.8 1013.0 -9.9 -9.999 -99.9 -99.99 -9.99
2019/06/16 13:36 PDT    4.51   4.88    2  249   10  54.9  56.8 1013.0 -9.9 -9.999 -99.9 -99.99 -9.99
2019/06/16 13:42 PDT    4.46   4.87    3  259    8  55.0  57.0 1012.9 -9.9 -9.999 -99.9 -99.99 -9.99
2019/06/16 13:48 PDT    4.41   4.83    5  225    9  55.0  57.2 1012.9 -9.9 -9.999 -99.9 -99.99 -9.99
2019/06/16 13:54 PDT    4.36   4.75    4  214    9  55.2  57.2 1012.8 -9.9 -9.999 -99.9 -99.99 -9.99
2019/06/16 14:00 PDT    4.30   4.71    2  260    9  55.2  57.2 1012.7 -9.9 -9.999 -99.9 -99.99 -9.99
2019/06/16 14:06 PDT    4.24   4.66    7  284   12  54.9  57.4 1012.6 -9.9 -9.999 -99.9 -99.99 -9.99
2019/06/16 14:12 PDT    4.18   4.61    3  227    9  55.2  57.4 1012.6 -9.9 -9.999 -99.9 -99.99 -9.99
2019/06/16 14:18 PDT    4.11   4.60    4  207    8  55.2  57.2 1012.6 -9.9 -9.999 -99.9 -99.99 -9.99
2019/06/16 14:24 PDT    4.04   4.54    5  279   12  55.0  57.0 1012.5 -9.9 -9.999 -99.9 -99.99 -9.99
2019/06/16 14:30 PDT    3.97   4.46    3  241   11  55.0  57.2 1012.5 -9.9 -9.999 -99.9 -99.99 -9.99
2019/06/16 14:36 PDT    3.90   4.42    6  296   14  54.9  57.4 1012.4 -9.9 -9.999 -99.9 -99.99 -9.99
2019/06/16 14:42 PDT    3.83   4.34    7  263   14  54.9  57.4 1012.3 -9.9 -9.999 -99.9 -99.99 -9.99
2019/06/16 14:48 PDT    3.76   4.26    4  252   14  55.0  57.4 1012.3 -9.9 -9.999 -99.9 -99.99 -9.99
2019/06/16 14:54 PDT    3.68   4.17    6  248   14  55.0  57.4 1012.2 -9.9 -9.999 -99.9 -99.99 -9.99
2019/06/16 15:00 PDT    3.61   4.08    7  249   13  55.0  57.4 1012.1 -9.9 -9.999 -99.9 -99.99 -9.99
2019/06/16 15:06 PDT    3.54   4.01    9  271   17  54.7  57.2 1012.0 -9.9 -9.999 -99.9 -99.99 -9.99
2019/06/16 15:12 PDT    3.46   3.93    8  260   13  54.5  57.0 1012.0 -9.9 -9.999 -99.9 -99.99 -9.99
2019/06/16 15:18 PDT    3.39   3.89    7  265   15  54.7  57.0 1011.9 -9.9 -9.999 -99.9 -99.99 -9.99
2019/06/16 15:24 PDT    3.32   3.87    7  262   14  54.7  57.0 1011.9 -9.9 -9.999 -99.9 -99.99 -9.99
2019/06/16 15:30 PDT    3.25   3.81   11  255   16  54.5  56.8 1011.9 -9.9 -9.999 -99.9 -99.99 -9.99
2019/06/16 15:36 PDT    3.19   3.75    7  257   16  54.7  56.8 1011.9 -9.9 -9.999 -99.9 -99.99 -9.99
2019/06/16 15:42 PDT    3.12   3.68    4  251   13  54.9  56.8 1011.8 -9.9 -9.999 -99.9 -99.99 -9.99
2019/06/16 15:48 PDT    3.06   3.59    8  246   14  54.7  57.0 1011.8 -9.9 -9.999 -99.9 -99.99 -9.99
2019/06/16 15:54 PDT    3.00   3.49    9  265   14  54.5  57.0 1011.7 -9.9 -9.999 -99.9 -99.99 -9.99
2019/06/16 16:00 PDT    2.95   3.39    3  227   11  54.7  57.4 1011.6 -9.9 -9.999 -99.9 -99.99 -9.99
2019/06/16 16:06 PDT    2.90   3.33    5  225   13  54.7  57.6 1011.5 -9.9 -9.999 -99.9 -99.99 -9.99
2019/06/16 16:12 PDT    2.85   3.31    6  226   13  54.7  57.6 1011.6 -9.9 -9.999 -99.9 -99.99 -9.99
2019/06/16 16:18 PDT    2.81   3.27    7  266   14  54.3  57.4 1011.5 -9.9 -9.999 -99.9 -99.99 -9.99
2019/06/16 16:24 PDT    2.77   3.26    5  235   11  54.5  57.4 1011.6 -9.9 -9.999 -99.9 -99.99 -9.99
2019/06/16 16:30 PDT    2.73   3.23    7  254   13  54.3  57.6 1011.5 -9.9 -9.999 -99.9 -99.99 -9.99
2019/06/16 16:36 PDT    2.70   3.13    5  242   10  54.5  57.7 1011.4 -9.9 -9.999 -99.9 -99.99 -9.99
2019/06/16 16:42 PDT    2.68   3.07    8  245   13  54.5  57.9 1011.3 -9.9 -9.999 -99.9 -99.99 -9.99
2019/06/16 16:48 PDT    2.65   3.04    7  250   21  54.3  58.1 1011.2 -9.9 -9.999 -99.9 -99.99 -9.99
2019/06/16 16:54 PDT    2.64   2.99    4  260   12  54.5  57.9 1011.1 -9.9 -9.999 -99.9 -99.99 -9.99
2019/06/16 17:00 PDT    2.62   2.99    9  248   13  54.5  58.1 1011.0 -9.9 -9.999 -99.9 -99.99 -9.99
2019/06/16 17:06 PDT    2.61   3.01    7  257   15  54.1  58.1 1010.9 -9.9 -9.999 -99.9 -99.99 -9.99
2019/06/16 17:12 PDT    2.61   2.99   10  228   17  54.1  58.1 1010.8 -9.9 -9.999 -99.9 -99.99 -9.99
2019/06/16 17:18 PDT    2.61   2.99   10  248   17  54.0  58.1 1010.8 -9.9 -9.999 -99.9 -99.99 -9.99
2019/06/16 17:24 PDT    2.62   2.98    8  246   13  54.0  58.1 1010.7 -9.9 -9.999 -99.9 -99.99 -9.99
2019/06/16 17:30 PDT    2.63   2.99   12  257   21  54.0  58.1 1010.7 -9.9 -9.999 -99.9 -99.99 -9.99
2019/06/16 17:36 PDT    2.64   3.02   11  248   20  54.0  58.3 1010.6 -9.9 -9.999 -99.9 -99.99 -9.99
2019/06/16 17:42 PDT    2.66   3.05   11  243   17  54.0  58.3 1010.6 -9.9 -9.999 -99.9 -99.99 -9.99
2019/06/16 17:48 PDT    2.68   3.09    9  243   22  53.8  58.3 1010.6 -9.9 -9.999 -99.9 -99.99 -9.99
2019/06/16 17:54 PDT    2.71   3.12   12  255   21  53.6  58.3 1010.6 -9.9 -9.999 -99.9 -99.99 -9.99
2019/06/16 18:00 PDT    2.75   3.14   13  263   22  53.4  58.3 1010.6 -9.9 -9.999 -99.9 -99.99 -9.99
2019/06/16 18:06 PDT    2.78   3.16   12  247   22  53.4  58.3 1010.5 -9.9 -9.999 -99.9 -99.99 -9.99
2019/06/16 18:12 PDT    2.83   3.19   10  241   19  53.6  58.5 1010.6 -9.9 -9.999 -99.9 -99.99 -9.99
2019/06/16 18:18 PDT    2.87   3.19   11  258   16  53.6  58.5 1010.5 -9.9 -9.999 -99.9 -99.99 -9.99
2019/06/16 18:24 PDT    2.92   3.24   11  249   16  53.6  58.5 1010.6 -9.9 -9.999 -99.9 -99.99 -9.99
2019/06/16 18:30 PDT    2.98   3.32    8  257   15  53.4  58.6 1010.7 -9.9 -9.999 -99.9 -99.99 -9.99
2019/06/16 18:36 PDT    3.03   3.38    8  240   18  53.2  58.5 1010.8 -9.9 -9.999 -99.9 -99.99 -9.99
2019/06/16 18:42 PDT    3.10   3.41    8  241   14  53.4  58.5 1010.8 -9.9 -9.999 -99.9 -99.99 -9.99
2019/06/16 18:48 PDT    3.16   3.49    9  244   17  53.2  58.5 1010.9 -9.9 -9.999 -99.9 -99.99 -9.99
2019/06/16 18:54 PDT    3.23   3.52   11  232   17  52.9  58.5 1010.9 -9.9 -9.999 -99.9 -99.99 -9.99
2019/06/16 19:00 PDT    3.30   3.55   11  255   17  52.9  58.5 1010.8 -9.9 -9.999 -99.9 -99.99 -9.99
2019/06/16 19:06 PDT    3.38   3.63    7  257   14  53.1  58.5 1010.8 -9.9 -9.999 -99.9 -99.99 -9.99
2019/06/16 19:12 PDT    3.45   3.72    7  241   14  53.2  58.5 1010.8 -9.9 -9.999 -99.9 -99.99 -9.99
2019/06/16 19:18 PDT    3.53   3.77   10  253   16  53.1  58.5 1010.7 -9.9 -9.999 -99.9 -99.99 -9.99
2019/06/16 19:24 PDT    3.62   3.83    8  259   16  52.9  58.5 1010.8 -9.9 -9.999 -99.9 -99.99 -9.99
2019/06/16 19:30 PDT    3.70   3.98    7  263   14  52.9  58.5 1010.8 -9.9 -9.999 -99.9 -99.99 -9.99
2019/06/16 19:36 PDT    3.79   4.09    7  242   15  52.7  58.5 1010.8 -9.9 -9.999 -99.9 -99.99 -9.99
2019/06/16 19:42 PDT    3.88   4.20    7  234   18  52.7  58.5 1010.8 -9.9 -9.999 -99.9 -99.99 -9.99
2019/06/16 19:48 PDT    3.97   4.31   11  246   16  52.7  58.5 1010.8 -9.9 -9.999 -99.9 -99.99 -9.99
2019/06/16 19:54 PDT    4.06   4.38    8  244   14  52.7  58.5 1010.9 -9.9 -9.999 -99.9 -99.99 -9.99
2019/06/16 20:00 PDT    4.15   4.42   10  244   14  52.7  58.3 1010.9 -9.9 -9.999 -99.9 -99.99 -9.99
2019/06/16 20:06 PDT    4.24   4.49    7  248   15  52.7  58.3 1011.0 -9.9 -9.999 -99.9 -99.99 -9.99
2019/06/16 20:12 PDT    4.34   4.58    8  247   17  52.5  58.3 1011.0 -9.9 -9.999 -99.9 -99.99 -9.99
2019/06/16 20:18 PDT    4.43   4.66    6  225   11  52.7  58.3 1011.1 -9.9 -9.999 -99.9 -99.99 -9.99
2019/06/16 20:24 PDT    4.52   4.72    6  251   13  52.7  58.3 1011.0 -9.9 -9.999 -99.9 -99.99 -9.99
2019/06/16 20:30 PDT    4.62   4.79    7  236   15  52.5  58.3 1011.0 -9.9 -9.999 -99.9 -99.99 -9.99
2019/06/16 20:36 PDT    4.71   4.88    9  248   13  52.5  58.3 1010.9 -9.9 -9.999 -99.9 -99.99 -9.99
2019/06/16 20:42 PDT    4.80   5.02    7  242   16  52.5  58.1 1010.9 -9.9 -9.999 -99.9 -99.99 -9.99
2019/06/16 20:48 PDT    4.89   5.08    6  229   10  52.7  58.1 1010.9 -9.9 -9.999 -99.9 -99.99 -9.99
2019/06/16 20:54 PDT    4.98   5.17    6  240   12  52.5  58.1 1011.0 -9.9 -9.999 -99.9 -99.99 -9.99
2019/06/16 21:00 PDT    5.07   5.24    7  238   13  52.3  58.1 1011.0 -9.9 -9.999 -99.9 -99.99 -9.99
2019/06/16 21:06 PDT    5.16   5.34    7  227   12  52.5  58.1 1011.0 -9.9 -9.999 -99.9 -99.99 -9.99
2019/06/16 21:12 PDT    5.25   5.46    6  223   10  52.5  58.1 1011.0 -9.9 -9.999 -99.9 -99.99 -9.99
2019/06/16 21:18 PDT    5.33   5.58    6  230   11  52.3  58.1 1010.9 -9.9 -9.999 -99.9 -99.99 -9.99
2019/06/16 21:24 PDT    5.42   5.67    2  232   10  52.5  58.1 1011.0 -9.9 -9.999 -99.9 -99.99 -9.99
2019/06/16 21:30 PDT    5.50   5.73    1  264   11  52.7  58.1 1011.0 -9.9 -9.999 -99.9 -99.99 -9.99
2019/06/16 21:36 PDT    5.58   5.82    4  216    7  52.7  58.1 1011.0 -9.9 -9.999 -99.9 -99.99 -9.99
2019/06/16 21:42 PDT    5.66   5.93    5  255   10  52.7  58.1 1011.0 -9.9 -9.999 -99.9 -99.99 -9.99
2019/06/16 21:48 PDT    5.73   6.02    4  207    8  52.7  58.1 1011.0 -9.9 -9.999 -99.9 -99.99 -9.99
2019/06/16 21:54 PDT    5.80   6.10    4  237   11  52.7  58.1 1011.0 -9.9 -9.999 -99.9 -99.99 -9.99
2019/06/16 22:00 PDT    5.87   6.17    8  220   11  52.3  57.7 1010.9 -9.9 -9.999 -99.9 -99.99 -9.99
2019/06/16 22:06 PDT    5.94   6.24    8  232   16  52.2  56.8 1011.1 -9.9 -9.999 -99.9 -99.99 -9.99
2019/06/16 22:12 PDT    6.00   6.32    8  244   13  52.3  56.5 1011.0 -9.9 -9.999 -99.9 -99.99 -9.99
2019/06/16 22:18 PDT    6.06   6.39    9  235   15  52.7  57.0 1010.9 -9.9 -9.999 -99.9 -99.99 -9.99
2019/06/16 22:24 PDT    6.12   6.43    6  222   13  52.9  56.8 1011.0 -9.9 -9.999 -99.9 -99.99 -9.99
2019/06/16 22:30 PDT    6.17   6.47    7  247   12  52.9  56.5 1011.1 -9.9 -9.999 -99.9 -99.99 -9.99
2019/06/16 22:36 PDT    6.22   6.54   11  241   15  53.1  56.5 1011.1 -9.9 -9.999 -99.9 -99.99 -9.99
2019/06/16 22:42 PDT    6.26   6.59    9  222   13  53.1  56.3 1011.2 -9.9 -9.999 -99.9 -99.99 -9.99
2019/06/16 22:48 PDT    6.30   6.65    5  226   12  53.1  56.3 1011.2 -9.9 -9.999 -99.9 -99.99 -9.99
2019/06/16 22:54 PDT    6.34   6.68    8  214   12  53.1  56.1 1011.3 -9.9 -9.999 -99.9 -99.99 -9.99
2019/06/16 23:00 PDT    6.37   6.70    6  224   12  52.9  55.9 1011.4 -9.9 -9.999 -99.9 -99.99 -9.99
2019/06/16 23:06 PDT    6.39   6.72    7  218   14  52.7  55.9 1011.4 -9.9 -9.999 -99.9 -99.99 -9.99
2019/06/16 23:12 PDT    6.41   6.76    6  215    9  52.9  55.9 1011.3 -9.9 -9.999 -99.9 -99.99 -9.99
2019/06/16 23:18 PDT    6.42   6.76    7  242   12  53.1  55.9 1011.3 -9.9 -9.999 -99.9 -99.99 -9.99
2019/06/16 23:24 PDT    6.43   6.75    6  231   12  53.2  55.9 1011.2 -9.9 -9.999 -99.9 -99.99 -9.99
2019/06/16 23:30 PDT    6.43   6.78    7  242   14  53.4  55.9 1011.1 -9.9 -9.999 -99.9 -99.99 -9.99
2019/06/16 23:36 PDT    6.42   6.78    2  223    9  53.6  56.1 1011.1 -9.9 -9.999 -99.9 -99.99 -9.99
2019/06/16 23:42 PDT    6.41   6.79    5  224    9  53.6  56.1 1011.0 -9.9 -9.999 -99.9 -99.99 -9.99
2019/06/16 23:48 PDT    6.39   6.79    7  223   13  53.8  56.1 1010.9 -9.9 -9.999 -99.9 -99.99 -9.99
2019/06/16 23:54 PDT    6.36   6.75    6  217   11  54.0  56.1 1010.8 -9.9 -9.999 -99.9 -99.99 -9.99
2019/06/17 00:00 PDT    6.33   6.71    7  229   11  53.8  56.1 1010.8 -9.9 -9.999 -99.9 -99.99 -9.99
2019/06/17 00:06 PDT    6.28   6.66    9  241   16  54.0  55.9 1010.8 -9.9 -9.999 -99.9 -99.99 -9.99
2019/06/17 00:12 PDT    6.24   6.67    6  218   14  54.3  55.8 1010.7 -9.9 -9.999 -99.9 -99.99 -9.99
2019/06/17 00:18 PDT    6.18   6.64    4  230   13  54.3  55.9 1010.7 -9.9 -9.999 -99.9 -99.99 -9.99
2019/06/17 00:24 PDT    6.12   6.58    6  227   13  54.3  56.1 1010.6 -9.9 -9.999 -99.9 -99.99 -9.99
2019/06/17 00:30 PDT    6.05   6.50    4  217   14  54.3  56.1 1010.7 -9.9 -9.999 -99.9 -99.99 -9.99
2019/06/17 00:36 PDT    5.97   6.40   10  249   12  54.5  56.1 1010.7 -9.9 -9.999 -99.9 -99.99 -9.99
2019/06/17 00:42 PDT    5.88   6.33    5  230   12  54.5  56.1 1010.7 -9.9 -9.999 -99.9 -99.99 -9.99
2019/06/17 00:48 PDT    5.79   6.24    7  237   16  54.5  56.1 1010.6 -9.9 -9.999 -99.9 -99.99 -9.99
2019/06/17 00:54 PDT    5.69   6.12    6  230   13  54.5  56.1 1010.6 -9.9 -9.999 -99.9 -99.99 -9.99
2019/06/17 01:00 PDT    5.59   6.01    4  223    7  54.5  56.1 1010.6 -9.9 -9.999 -99.9 -99.99 -9.99
2019/06/17 01:06 PDT    5.48   5.93    5  256   12  54.5  56.1 1010.6 -9.9 -9.999 -99.9 -99.99 -9.99
2019/06/17 01:12 PDT    5.36   5.84    6  245    9  54.5  56.1 1010.6 -9.9 -9.999 -99.9 -99.99 -9.99
2019/06/17 01:18 PDT    5.23   5.72    4  238    7  54.5  56.1 1010.6 -9.9 -9.999 -99.9 -99.99 -9.99
2019/06/17 01:24 PDT    5.10   5.59    6  244    9  54.5  56.1 1010.6 -9.9 -9.999 -99.9 -99.99 -9.99
2019/06/17 01:30 PDT    4.96   5.44    5  226    9  54.3  56.1 1010.6 -9.9 -9.999 -99.9 -99.99 -9.99
2019/06/17 01:36 PDT    4.82   5.27    6  218   10  54.3  56.1 1010.6 -9.9 -9.999 -99.9 -99.99 -9.99
2019/06/17 01:42 PDT    4.68   5.11    7  227   10  54.5  56.1 1010.6 -9.9 -9.999 -99.9 -99.99 -9.99
2019/06/17 01:48 PDT    4.52   4.93    7  226   12  54.5  56.1 1010.5 -9.9 -9.999 -99.9 -99.99 -9.99
2019/06/17 01:54 PDT    4.37   4.80    4  243   10  54.5  56.1 1010.5 -9.9 -9.999 -99.9 -99.99 -9.99
2019/06/17 02:00 PDT    4.21   4.67    5  227    8  54.3  56.1 1010.4 -9.9 -9.999 -99.9 -99.99 -9.99
2019/06/17 02:06 PDT    4.04   4.51    5  231   12  54.5  56.1 1010.3 -9.9 -9.999 -99.9 -99.99 -9.99
2019/06/17 02:12 PDT    3.87   4.33    4  229   11  54.5  56.1 1010.3 -9.9 -9.999 -99.9 -99.99 -9.99
2019/06/17 02:18 PDT    3.70   4.13    3  240    7  54.5  56.1 1010.3 -9.9 -9.999 -99.9 -99.99 -9.99
2019/06/17 02:24 PDT    3.53   3.93    6  248   10  54.5  56.1 1010.3 -9.9 -9.999 -99.9 -99.99 -9.99
2019/06/17 02:30 PDT    3.35   3.69    5  209    9  54.5  56.1 1010.3 -9.9 -9.999 -99.9 -99.99 -9.99
2019/06/17 02:36 PDT    3.18   3.49    4  247    9  54.5  56.1 1010.3 -9.9 -9.999 -99.9 -99.99 -9.99
2019/06/17 02:42 PDT    3.00   3.28    4  231   11  54.5  56.1 1010.3 -9.9 -9.999 -99.9 -99.99 -9.99
2019/06/17 02:48 PDT    2.82   3.08    4  241    9  54.5  56.1 1010.3 -9.9 -9.999 -99.9 -99.99 -9.99
2019/06/17 02:54 PDT    2.64   2.92    6  228   13  54.5  56.1 1010.2 -9.9 -9.999 -99.9 -99.99 -9.99
2019/06/17 03:00 PDT    2.46   2.75    6  236   13  54.5  55.9 1010.2 -9.9 -9.999 -99.9 -99.99 -9.99
2019/06/17 03:06 PDT    2.28   2.58    7  218   13  54.5  55.9 1010.1 -9.9 -9.999 -99.9 -99.99 -9.99
2019/06/17 03:12 PDT    2.11   2.39    6  232   12  54.5  55.9 1010.2 -9.9 -9.999 -99.9 -99.99 -9.99
2019/06/17 03:18 PDT    1.93   2.22    7  212   13  54.5  55.9 1010.1 -9.9 -9.999 -99.9 -99.99 -9.99
2019/06/17 03:24 PDT    1.76   2.09    7  235   11  54.5  55.9 1010.1 -9.9 -9.999 -99.9 -99.99 -9.99
2019/06/17 03:30 PDT    1.59   1.95    5  212    8  54.5  55.9 1010.1 -9.9 -9.999 -99.9 -99.99 -9.99
2019/06/17 03:36 PDT    1.42   1.79    6  211   12  54.5  55.9 1010.2 -9.9 -9.999 -99.9 -99.99 -9.99
2019/06/17 03:42 PDT    1.25   1.65    6  237    9  54.5  55.9 1010.2 -9.9 -9.999 -99.9 -99.99 -9.99
2019/06/17 03:48 PDT    1.09   1.50    6  227   11  54.7  55.9 1010.2 -9.9 -9.999 -99.9 -99.99 -9.99
2019/06/17 03:54 PDT    0.93   1.34    5  233   10  54.7  55.9 1010.1 -9.9 -9.999 -99.9 -99.99 -9.99
2019/06/17 04:00 PDT    0.78   1.22    9  212   13  54.7  55.9 1010.1 -9.9 -9.999 -99.9 -99.99 -9.99
2019/06/17 04:06 PDT    0.64   1.04    8  202   13  54.7  55.9 1010.2 -9.9 -9.999 -99.9 -99.99 -9.99
2019/06/17 04:12 PDT    0.49   0.92    5  219   11  54.7  55.9 1010.2 -9.9 -9.999 -99.9 -99.99 -9.99
2019/06/17 04:18 PDT    0.36   0.83    8  225   10  54.7  55.8 1010.1 -9.9 -9.999 -99.9 -99.99 -9.99
2019/06/17 04:24 PDT    0.23   0.70    8  223   12  54.5  55.8 1010.1 -9.9 -9.999 -99.9 -99.99 -9.99
2019/06/17 04:30 PDT    0.10   0.58    6  231   11  54.5  55.8 1010.1 -9.9 -9.999 -99.9 -99.99 -9.99
2019/06/17 04:36 PDT   -0.02   0.48    8  210   13  54.5  55.8 1010.1 -9.9 -9.999 -99.9 -99.99 -9.99
2019/06/17 04:42 PDT   -0.13   0.35    7  230   14  54.5  55.8 1010.1 -9.9 -9.999 -99.9 -99.99 -9.99
2019/06/17 04:48 PDT   -0.24   0.26    6  229   11  54.5  55.8 1010.1 -9.9 -9.999 -99.9 -99.99 -9.99
2019/06/17 04:54 PDT   -0.34   0.18    5  201   14  54.5  55.8 1010.1 -9.9 -9.999 -99.9 -99.99 -9.99
2019/06/17 05:00 PDT   -0.43   0.11    7  221   17  54.3  55.8 1010.1 -9.9 -9.999 -99.9 -99.99 -9.99
2019/06/17 05:06 PDT   -0.52   0.03    9  207   12  54.3  55.8 1010.1 -9.9 -9.999 -99.9 -99.99 -9.99
2019/06/17 05:12 PDT   -0.59  -0.07   11  199   15  54.3  55.8 1010.2 -9.9 -9.999 -99.9 -99.99 -9.99
2019/06/17 05:18 PDT   -0.67  -0.16   10  203   15  54.3  55.8 1010.2 -9.9 -9.999 -99.9 -99.99 -9.99
2019/06/17 05:24 PDT   -0.73  -0.24    8  221   14  54.3  55.8 1010.3 -9.9 -9.999 -99.9 -99.99 -9.99
2019/06/17 05:30 PDT   -0.79  -0.29    9  213   14  54.3  55.8 1010.4 -9.9 -9.999 -99.9 -99.99 -9.99
2019/06/17 05:36 PDT   -0.84  -0.35    7  221   13  54.3  55.8 1010.3 -9.9 -9.999 -99.9 -99.99 -9.99
2019/06/17 05:42 PDT   -0.89  -0.38   10  219   15  54.3  56.5 1010.4 -9.9 -9.999 -99.9 -99.99 -9.99
2019/06/17 05:48 PDT   -0.92  -0.43    8  215   12  54.3  56.8 1010.4 -9.9 -9.999 -99.9 -99.99 -9.99
2019/06/17 05:54 PDT   -0.96  -0.46    7  222   12  54.3  57.2 1010.4 -9.9 -9.999 -99.9 -99.99 -9.99
2019/06/17 06:00 PDT   -0.98  -0.49    8  220   11  54.3  57.2 1010.5 -9.9 -9.999 -99.9 -99.99 -9.99
2019/06/17 06:06 PDT   -1.00  -0.51   10  219   13  54.3  57.4 1010.4 -9.9 -9.999 -99.9 -99.99 -9.99
2019/06/17 06:12 PDT   -1.01  -0.49    7  226   10  54.3  57.4 1010.5 -9.9 -9.999 -99.9 -99.99 -9.99
2019/06/17 06:18 PDT   -1.01  -0.47    7  239   11  54.5  57.4 1010.6 -9.9 -9.999 -99.9 -99.99 -9.99
2019/06/17 06:24 PDT   -1.01  -0.47    5  231   12  54.5  57.4 1010.8 -9.9 -9.999 -99.9 -99.99 -9.99
2019/06/17 06:30 PDT   -1.00  -0.46    3  236    7  54.7  57.2 1010.9 -9.9 -9.999 -99.9 -99.99 -9.99
2019/06/17 06:36 PDT   -0.99  -0.47    7  254   11  54.7  57.2 1010.8 -9.9 -9.999 -99.9 -99.99 -9.99
2019/06/17 06:42 PDT   -0.97  -0.44    7  230   10  54.7  57.7 1010.8 -9.9 -9.999 -99.9 -99.99 -9.99
2019/06/17 06:48 PDT   -0.94  -0.44    6  242    9  54.9  57.7 1010.8 -9.9 -9.999 -99.9 -99.99 -9.99
2019/06/17 06:54 PDT   -0.91  -0.40    5  240    9  54.9  58.1 1010.9 -9.9 -9.999 -99.9 -99.99 -9.99
2019/06/17 07:00 PDT   -0.88  -0.37    7  242   10  54.9  58.3 1010.9 -9.9 -9.999 -99.9 -99.99 -9.99
2019/06/17 07:06 PDT   -0.83  -0.32    5  227    9  55.0  58.5 1010.9 -9.9 -9.999 -99.9 -99.99 -9.99
2019/06/17 07:12 PDT   -0.78  -0.30    6  235    9  55.0  58.5 1010.9 -9.9 -9.999 -99.9 -99.99 -9.99
2019/06/17 07:18 PDT   -0.73  -0.24    5  225    8  55.2  58.5 1010.8 -9.9 -9.999 -99.9 -99.99 -9.99
2019/06/17 07:24 PDT   -0.67  -0.16    6  221    9  55.4  58.5 1010.8 -9.9 -9.999 -99.9 -99.99 -9.99
2019/06/17 07:30 PDT   -0.61  -0.12    7  224    9  55.4  58.6 1011.0 -9.9 -9.999 -99.9 -99.99 -9.99
2019/06/17 07:36 PDT   -0.54  -0.05    5  245    7  55.6  59.5 1011.0 -9.9 -9.999 -99.9 -99.99 -9.99
2019/06/17 07:42 PDT   -0.47   0.04    5  242    9  55.6  59.5 1011.0 -9.9 -9.999 -99.9 -99.99 -9.99
2019/06/17 07:48 PDT   -0.40   0.12    4  232    8  55.8  59.5 1011.0 -9.9 -9.999 -99.9 -99.99 -9.99
2019/06/17 07:54 PDT   -0.32   0.18    5  225    6  55.9  59.2 1011.0 -9.9 -9.999 -99.9 -99.99 -9.99
2019/06/17 08:00 PDT   -0.24   0.27    4  243    6  56.5  59.2 1011.0 -9.9 -9.999 -99.9 -99.99 -9.99
2019/06/17 08:06 PDT   -0.15   0.41    4  275    6  56.5  60.1 1011.1 -9.9 -9.999 -99.9 -99.99 -9.99
2019/06/17 08:12 PDT   -0.06   0.51    4  227    6  56.8  60.3 1011.2 -9.9 -9.999 -99.9 -99.99 -9.99
2019/06/17 08:18 PDT    0.03   0.60    4  246    7  57.0  60.4 1011.2 -9.9 -9.999 -99.9 -99.99 -9.99
2019/06/17 08:24 PDT    0.13   0.69    5  244    8  57.0  60.4 1011.3 -9.9 -9.999 -99.9 -99.99 -9.99
2019/06/17 08:30 PDT    0.23   0.78    4  260    8  57.2  60.6 1011.3 -9.9 -9.999 -99.9 -99.99 -9.99
2019/06/17 08:36 PDT    0.33   0.86    7  259   11  57.2  60.6 1011.3 -9.9 -9.999 -99.9 -99.99 -9.99
2019/06/17 08:42 PDT    0.43   0.94    4  244   11  57.2  60.8 1011.4 -9.9 -9.999 -99.9 -99.99 -9.99
2019/06/17 08:48 PDT    0.53   1.06    6  276   10  57.2  60.8 1011.4 -9.9 -9.999 -99.9 -99.99 -9.99
2019/06/17 08:54 PDT    0.64   1.19    5  267   10  57.2  60.8 1011.5 -9.9 -9.999 -99.9 -99.99 -9.99
2019/06/17 09:00 PDT    0.75   1.29    6  240   11  57.4  61.0 1011.6 -9.9 -9.999 -99.9 -99.99 -9.99
2019/06/17 09:06 PDT    0.86   1.37    7  255   10  57.6  60.8 1011.6 -9.9 -9.999 -99.9 -99.99 -9.99
2019/06/17 09:12 PDT    0.97   1.53    6  246   10  57.9  61.0 1011.7 -9.9 -9.999 -99.9 -99.99 -9.99
2019/06/17 09:18 PDT    1.08   1.65    7  273   12  57.7  61.0 1011.7 -9.9 -9.999 -99.9 -99.99 -9.99
2019/06/17 09:24 PDT    1.20   1.77    5  245   14  57.7  61.2 1011.7 -9.9 -9.999 -99.9 -99.99 -9.99
2019/06/17 09:30 PDT    1.31   1.89    6  245   12  57.7  61.2 1011.7 -9.9 -9.999 -99.9 -99.99 -9.99
2019/06/17 09:36 PDT    1.43   2.05    7  243   11  57.7  61.0 1011.7 -9.9 -9.999 -99.9 -99.99 -9.99
2019/06/17 09:42 PDT    1.54   2.22    5  263   10  57.9  61.0 1011.7 -9.9 -9.999 -99.9 -99.99 -9.99
2019/06/17 09:48 PDT    1.66   2.32    6  270   11  57.9  61.0 1011.7 -9.9 -9.999 -99.9 -99.99 -9.99
2019/06/17 09:54 PDT    1.78   2.45    8  270   11  57.6  61.0 1011.8 -9.9 -9.999 -99.9 -99.99 -9.99
2019/06/17 10:00 PDT    1.89   2.57    7  277   11  57.6  61.0 1011.8 -9.9 -9.999 -99.9 -99.99 -9.99
2019/06/17 10:06 PDT    2.01   2.65    7  250   11  57.7  60.6 1011.8 -9.9 -9.999 -99.9 -99.99 -9.99
2019/06/17 10:12 PDT    2.13   2.76    8  270   12  57.9  60.6 1011.7 -9.9 -9.999 -99.9 -99.99 -9.99
2019/06/17 10:18 PDT    2.25   2.87    8  257   13  57.9  60.6 1011.8 -9.9 -9.999 -99.9 -99.99 -9.99
2019/06/17 10:24 PDT    2.37   2.98    7  273   12  57.9  60.4 1011.8 -9.9 -9.999 -99.9 -99.99 -9.99
2019/06/17 10:30 PDT    2.49   3.10    7  267   11  57.9  60.4 1011.8 -9.9 -9.999 -99.9 -99.99 -9.99
2019/06/17 10:36 PDT    2.60   3.22    7  270   15  57.9  60.6 1011.9 -9.9 -9.999 -99.9 -99.99 -9.99
2019/06/17 10:42 PDT    2.72   3.35    8  270   14  57.9  60.6 1011.9 -9.9 -9.999 -99.9 -99.99 -9.99
2019/06/17 10:48 PDT    2.84   3.45    9  256   13  57.9  60.6 1011.9 -9.9 -9.999 -99.9 -99.99 -9.99
2019/06/17 10:54 PDT    2.95   3.54    6  253   13  58.1  60.6 1011.9 -9.9 -9.999 -99.9 -99.99 -9.99
2019/06/17 11:00 PDT    3.07   3.65    7  277   12  58.5  60.6 1011.9 -9.9 -9.999 -99.9 -99.99 -9.99
2019/06/17 11:06 PDT    3.18   3.73   10  255   14  58.3  60.6 1011.9 -9.9 -9.999 -99.9 -99.99 -9.99
2019/06/17 11:12 PDT    3.29   3.84    9  249   12  58.6  60.1 1012.0 -9.9 -9.999 -99.9 -99.99 -9.99
2019/06/17 11:18 PDT    3.40   3.96    8  262   13  58.8  59.7 1012.0 -9.9 -9.999 -99.9 -99.99 -9.99
2019/06/17 11:24 PDT    3.50   4.06    5  270   10  59.2  59.9 1012.1 -9.9 -9.999 -99.9 -99.99 -9.99
2019/06/17 11:30 PDT    3.61   4.16   10  252   14  59.0  59.4 1012.1 -9.9 -9.999 -99.9 -99.99 -9.99
2019/06/17 11:36 PDT    3.71   4.24   10  252   15  59.0  58.8 1012.2 -9.9 -9.999 -99.9 -99.99 -9.99
2019/06/17 11:42 PDT    3.80   4.38   12  249   16  59.2  59.0 1012.1 -9.9 -9.999 -99.9 -99.99 -9.99
2019/06/17 11:48 PDT    3.90   4.46   10  257   14  59.5  58.8 1012.1 -9.9 -9.999 -99.9 -99.99 -9.99
2019/06/17 11:54 PDT    3.99   4.54    7  249   15  59.7  58.8 1012.1 -9.9 -9.999 -99.9 -99.99 -9.99
2019/06/17 12:00 PDT    4.08   4.61   11  254   15  59.2  58.6 1012.1 -9.9 -9.999 -99.9 -99.99 -9.99
2019/06/17 12:06 PDT    4.16   4.69    4  260   14  60.1  58.6 1012.2 -9.9 -9.999 -99.9 -99.99 -9.99
2019/06/17 12:12 PDT    4.23   4.76   10  263   14  59.5  58.6 1012.2 -9.9 -9.999 -99.9 -99.99 -9.99
2019/06/17 12:18 PDT    4.31   4.82    7  253   12  59.9  58.6 1012.2 -9.9 -9.999 -99.9 -99.99 -9.99
2019/06/17 12:24 PDT    4.38   4.92   11  251   16  59.4  58.6 1012.2 -9.9 -9.999 -99.9 -99.99 -9.99
2019/06/17 12:30 PDT    4.44   4.96   10  246   15  59.2  58.6 1012.2 -9.9 -9.999 -99.9 -99.99 -9.99
2019/06/17 12:36 PDT    4.50   5.02   10  246   16  59.2  58.6 1012.2 -9.9 -9.999 -99.9 -99.99 -9.99
2019/06/17 12:42 PDT    4.55   5.08   11  240   17  58.8  58.6 1012.2 -9.9 -9.999 -99.9 -99.99 -9.99
2019/06/17 12:48 PDT    4.60   5.09    6  242   13  59.4  58.6 1012.2 -9.9 -9.999 -99.9 -99.99 -9.99
2019/06/17 12:54 PDT    4.64   5.12   13  262   18  58.6  58.5 1012.1 -9.9 -9.999 -99.9 -99.99 -9.99
2019/06/17 13:00 PDT    4.67   5.13   10  254   17  58.5  58.6 1012.2 -9.9 -9.999 -99.9 -99.99 -9.99
2019/06/17 13:06 PDT    4.71   5.15   11  257   17  58.1  58.6 1012.2 -9.9 -9.999 -99.9 -99.99 -9.99
2019/06/17 13:12 PDT    4.73   5.19   10  250   17  57.9  58.1 1012.2 -9.9 -9.999 -99.9 -99.99 -9.99
2019/06/17 13:18 PDT    4.75   5.21   12  254   18  57.7  57.9 1012.1 -9.9 -9.999 -99.9 -99.99 -9.99
2019/06/17 13:24 PDT    4.76   5.22    9  261   19  57.9  58.1 1012.1 -9.9 -9.999 -99.9 -99.99 -9.99
2019/06/17 13:30 PDT    4.77   5.22   10  252   17  57.9  57.9 1012.1 -9.9 -9.999 -99.9 -99.99 -9.99
2019/06/17 13:36 PDT    4.77   5.21   12  268   18  57.9  57.9 1012.0 -9.9 -9.999 -99.9 -99.99 -9.99
2019/06/17 13:42 PDT    4.77   5.22   10  258   17  57.9  57.7 1012.0 -9.9 -9.999 -99.9 -99.99 -9.99
2019/06/17 13:48 PDT    4.76   5.21    9  269   17  57.7  57.6 1012.0 -9.9 -9.999 -99.9 -99.99 -9.99
2019/06/17 13:54 PDT    4.75   5.20    8  267   13  57.9  57.6 1012.0 -9.9 -9.999 -99.9 -99.99 -9.99
2019/06/17 14:00 PDT    4.73   5.22    5  259   16  58.1  57.6 1012.0 -9.9 -9.999 -99.9 -99.99 -9.99
2019/06/17 14:06 PDT    4.70   5.22    9  271   16  57.9  57.6 1012.0 -9.9 -9.999 -99.9 -99.99 -9.99
2019/06/17 14:12 PDT    4.67   5.19    9  259   16  57.7  57.6 1011.9 -9.9 -9.999 -99.9 -99.99 -9.99
2019/06/17 14:18 PDT    4.64   5.14    7  250   15  57.7  57.4 1011.9 -9.9 -9.999 -99.9 -99.99 -9.99
2019/06/17 14:24 PDT    4.60   5.10    8  264   14  57.6  57.4 1011.8 -9.9 -9.999 -99.9 -99.99 -9.99
2019/06/17 14:30 PDT    4.56   5.06   10  267   15  57.6  57.4 1011.9 -9.9 -9.999 -99.9 -99.99 -9.99
2019/06/17 14:36 PDT    4.51   5.01    7  262   15  57.9  57.4 1011.9 -9.9 -9.999 -99.9 -99.99 -9.99
2019/06/17 14:42 PDT    4.46   4.99    9  263   15  57.6  57.6 1011.8 -9.9 -9.999 -99.9 -99.99 -9.99
2019/06/17 14:48 PDT    4.41   4.95    8  265   17  57.6  57.6 1011.8 -9.9 -9.999 -99.9 -99.99 -9.99
2019/06/17 14:54 PDT    4.36   4.91    4  258   17  57.9  57.6 1011.8 -9.9 -9.999 -99.9 -99.99 -9.99
2019/06/17 15:00 PDT    4.30   4.90    7  265   13  57.7  57.7 1011.7 -9.9 -9.999 -99.9 -99.99 -9.99
2019/06/17 15:06 PDT    4.23   4.83    6  253   13  57.9  57.6 1011.8 -9.9 -9.999 -99.9 -99.99 -9.99
2019/06/17 15:12 PDT    4.17   4.77    7  248   14  57.7  57.7 1011.7 -9.9 -9.999 -99.9 -99.99 -9.99
2019/06/17 15:18 PDT    4.11   4.71    7  245   15  57.7  57.9 1011.6 -9.9 -9.999 -99.9 -99.99 -9.99
2019/06/17 15:24 PDT    4.04   4.66   10  270   16  57.6  57.9 1011.5 -9.9 -9.999 -99.9 -99.99 -9.99
2019/06/17 15:30 PDT    3.97   4.60   10  263   17  57.4  57.7 1011.5 -9.9 -9.999 -99.9 -99.99 -9.99
2019/06/17 15:36 PDT    3.90   4.54    9  259   17  57.6  57.6 1011.5 -9.9 -9.999 -99.9 -99.99 -9.99
2019/06/17 15:42 PDT    3.83   4.50    6  260   15  57.6  57.4 1011.4 -9.9 -9.999 -99.9 -99.99 -9.99
2019/06/17 15:48 PDT    3.76   4.42   11  253   19  57.6  57.4 1011.3 -9.9 -9.999 -99.9 -99.99 -9.99
2019/06/17 15:54 PDT    3.70   4.37   11  244   23  57.4  57.4 1011.3 -9.9 -9.999 -99.9 -99.99 -9.99
2019/06/17 16:00 PDT    3.63   4.30    9  252   20  57.4  57.4 1011.1 -9.9 -9.999 -99.9 -99.99 -9.99
2019/06/17 16:06 PDT    3.56   4.22    8  260   17  57.4  57.2 1011.1 -9.9 -9.999 -99.9 -99.99 -9.99
2019/06/17 16:12 PDT    3.50   4.15    8  244   16  57.4  57.2 1011.0 -9.9 -9.999 -99.9 -99.99 -9.99
2019/06/17 16:18 PDT    3.43   4.10   13  251   18  57.2  57.2 1010.9 -9.9 -9.999 -99.9 -99.99 -9.99
2019/06/17 16:24 PDT    3.37   4.03   11  254   20  57.0  57.2 1010.9 -9.9 -9.999 -99.9 -99.99 -9.99
2019/06/17 16:30 PDT    3.31   3.96   12  255   21  56.8  57.2 1010.9 -9.9 -9.999 -99.9 -99.99 -9.99
2019/06/17 16:36 PDT    3.26   3.88   15  252   24  56.8  57.2 1010.8 -9.9 -9.999 -99.9 -99.99 -9.99
2019/06/17 16:42 PDT    3.20   3.85   12  243   20  56.8  57.2 1010.8 -9.9 -9.999 -99.9 -99.99 -9.99
2019/06/17 16:48 PDT    3.15   3.79   11  254   19  56.8  57.2 1010.9 -9.9 -9.999 -99.9 -99.99 -9.99
2019/06/17 16:54 PDT    3.11   3.75   10  257   18  56.8  57.4 1010.9 -9.9 -9.999 -99.9 -99.99 -9.99
2019/06/17 17:00 PDT    3.06   3.66   11  257   21  56.7  57.6 1010.9 -9.9 -9.999 -99.9 -99.99 -9.99
2019/06/17 17:06 PDT    3.02   3.60    9  246   17  56.7  57.7 1010.9 -9.9 -9.999 -99.9 -99.99 -9.99
2019/06/17 17:12 PDT    2.99   3.54   10  258   20  56.7  57.9 1010.8 -9.9 -9.999 -99.9 -99.99 -9.99
2019/06/17 17:18 PDT    2.95   3.53    9  261   16  56.5  58.1 1010.8 -9.9 -9.999 -99.9 -99.99 -9.99
2019/06/17 17:24 PDT    2.93   3.48   11  244   21  56.5  58.1 1010.8 -9.9 -9.999 -99.9 -99.99 -9.99
2019/06/17 17:30 PDT    2.90   3.45   11  249   16  56.5  58.5 1010.7 -9.9 -9.999 -99.9 -99.99 -9.99
2019/06/17 17:36 PDT    2.88   3.40   12  259   17  56.3  58.5 1010.7 -9.9 -9.999 -99.9 -99.99 -9.99
2019/06/17 17:42 PDT    2.87   3.41   11  244   18  56.3  58.6 1010.7 -9.9 -9.999 -99.9 -99.99 -9.99
2019/06/17 17:48 PDT    2.86   3.40   11  254   18  56.3  58.6 1010.7 -9.9 -9.999 -99.9 -99.99 -9.99
2019/06/17 17:54 PDT    2.85   3.40   11  241   17  56.3  58.6 1010.6 -9.9 -9.999 -99.9 -99.99 -9.99
2019/06/17 18:00 PDT    2.85   3.40    9  242   18  56.1  58.6 1010.7 -9.9 -9.999 -99.9 -99.99 -9.99
2019/06/17 18:06 PDT    2.85   3.37   12  249   20  56.1  58.6 1010.7 -9.9 -9.999 -99.9 -99.99 -9.99
2019/06/17 18:12 PDT    2.85   3.36   11  232   19  56.3  58.6 1010.7 -9.9 -9.999 -99.9 -99.99 -9.99
2019/06/17 18:18 PDT    2.87   3.39   12  244   21  56.1  58.6 1010.8 -9.9 -9.999 -99.9 -99.99 -9.99
2019/06/17 18:24 PDT    2.88   3.38   11  246   17  56.1  58.6 1010.8 -9.9 -9.999 -99.9 -99.99 -9.99
2019/06/17 18:30 PDT    2.90   3.36    7  256   15  55.9  58.8 1011.0 -9.9 -9.999 -99.9 -99.99 -9.99
2019/06/17 18:36 PDT    2.92   3.38    8  269   16  55.8  58.8 1011.1 -9.9 -9.999 -99.9 -99.99 -9.99
2019/06/17 18:42 PDT    2.95   3.41    5  269   10  55.8  58.8 1011.2 -9.9 -9.999 -99.9 -99.99 -9.99
2019/06/17 18:48 PDT    2.98   3.46    7  253   13  55.6  58.8 1011.3 -9.9 -9.999 -99.9 -99.99 -9.99
2019/06/17 18:54 PDT    3.02   3.50    6  244   14  55.6  58.8 1011.3 -9.9 -9.999 -99.9 -99.99 -9.99
2019/06/17 19:00 PDT    3.06   3.53    5  236    9  55.4  58.8 1011.3 -9.9 -9.999 -99.9 -99.99 -9.99
2019/06/17 19:06 PDT    3.10   3.55    4  253    9  55.6  58.6 1011.3 -9.9 -9.999 -99.9 -99.99 -9.99
2019/06/17 19:12 PDT    3.15   3.58    5  250   10  55.6  58.6 1011.3 -9.9 -9.999 -99.9 -99.99 -9.99
2019/06/17 19:18 PDT    3.20   3.62    4  209   12  55.6  58.6 1011.3 -9.9 -9.999 -99.9 -99.99 -9.99
2019/06/17 19:24 PDT    3.25   3.64    6  254   13  55.6  58.6 1011.4 -9.9 -9.999 -99.9 -99.99 -9.99
2019/06/17 19:30 PDT    3.31   3.68    4  240   12  55.6  58.6 1011.4 -9.9 -9.999 -99.9 -99.99 -9.99
2019/06/17 19:36 PDT    3.37   3.77    9  222   13  55.6  58.5 1011.4 -9.9 -9.999 -99.9 -99.99 -9.99
2019/06/17 19:42 PDT    3.44   3.87    4  264    9  55.6  58.5 1011.5 -9.9 -9.999 -99.9 -99.99 -9.99
2019/06/17 19:48 PDT    3.51   3.94    3  299   15  55.4  58.5 1011.5 -9.9 -9.999 -99.9 -99.99 -9.99
2019/06/17 19:54 PDT    3.58   4.01    2  301   10  55.4  58.5 1011.6 -9.9 -9.999 -99.9 -99.99 -9.99
2019/06/17 20:00 PDT    3.65   4.08    5  244   10  55.4  58.5 1011.6 -9.9 -9.999 -99.9 -99.99 -9.99
2019/06/17 20:06 PDT    3.72   4.14    4  263   11  55.4  58.5 1011.7 -9.9 -9.999 -99.9 -99.99 -9.99
2019/06/17 20:12 PDT    3.80   4.22    4  226   13  55.4  58.5 1011.7 -9.9 -9.999 -99.9 -99.99 -9.99
2019/06/17 20:18 PDT    3.88   4.31    5  244   13  55.4  58.5 1011.7 -9.9 -9.999 -99.9 -99.99 -9.99
2019/06/17 20:24 PDT    3.96   4.35    7  226   14  55.4  58.5 1011.7 -9.9 -9.999 -99.9 -99.99 -9.99
2019/06/17 20:30 PDT    4.04   4.42    6  259   15  55.6  58.5 1011.7 -9.9 -9.999 -99.9 -99.99 -9.99
2019/06/17 20:36 PDT    4.13   4.53    9  254   17  55.4  58.1 1011.8 -9.9 -9.999 -99.9 -99.99 -9.99
2019/06/17 20:42 PDT    4.21   4.64    9  244   17  55.4  58.1 1011.9 -9.9 -9.999 -99.9 -99.99 -9.99
2019/06/17 20:48 PDT    4.30   4.74    5  257   12  55.4  58.1 1011.9 -9.9 -9.999 -99.9 -99.99 -9.99
2019/06/17 20:54 PDT    4.38   4.80    9  233   17  55.2  58.1 1011.9 -9.9 -9.999 -99.9 -99.99 -9.99
2019/06/17 21:00 PDT    4.47   4.88    6  238   17  55.4  58.1 1012.0 -9.9 -9.999 -99.9 -99.99 -9.99
2019/06/17 21:06 PDT    4.56   4.95    6  243   17  55.4  58.1 1012.1 -9.9 -9.999 -99.9 -99.99 -9.99
2019/06/17 21:12 PDT    4.64   5.05    8  237   18  55.2  58.1 1012.1 -9.9 -9.999 -99.9 -99.99 -9.99
2019/06/17 21:18 PDT    4.73   5.16   10  232   17  55.4  58.1 1012.0 -9.9 -9.999 -99.9 -99.99 -9.99
2019/06/17 21:24 PDT    4.81   5.22    9  239   16  55.2  58.1 1012.0 -9.9 -9.999 -99.9 -99.99 -9.99
2019/06/17 21:30 PDT    4.90   5.27    5  236   17  55.2  57.9 1012.1 -9.9 -9.999 -99.9 -99.99 -9.99
2019/06/17 21:36 PDT    4.98   5.37    6  256   17  55.2  57.9 1012.1 -9.9 -9.999 -99.9 -99.99 -9.99
2019/06/17 21:42 PDT    5.06   5.42    8  240   16  55.4  57.9 1012.1 -9.9 -9.999 -99.9 -99.99 -9.99
2019/06/17 21:48 PDT    5.15   5.50    7  258   17  55.4  57.7 1012.0 -9.9 -9.999 -99.9 -99.99 -9.99
2019/06/17 21:54 PDT    5.23   5.62    8  245   15  55.6  57.7 1012.2 -9.9 -9.999 -99.9 -99.99 -9.99
2019/06/17 22:00 PDT    5.30   5.72    7  247   14  55.6  57.7 1012.4 -9.9 -9.999 -99.9 -99.99 -9.99
2019/06/17 22:06 PDT    5.38   5.81    4  211   14  55.4  57.9 1012.5 -9.9 -9.999 -99.9 -99.99 -9.99
2019/06/17 22:12 PDT    5.46   5.90   10  238   15  55.4  57.9 1012.5 -9.9 -9.999 -99.9 -99.99 -9.99
2019/06/17 22:18 PDT    5.53   5.98    7  225   14  55.4  57.9 1012.7 -9.9 -9.999 -99.9 -99.99 -9.99
2019/06/17 22:24 PDT    5.60   6.02    9  236   13  55.4  57.9 1012.6 -9.9 -9.999 -99.9 -99.99 -9.99
2019/06/17 22:30 PDT    5.67   6.11    5  260   13  55.2  57.7 1012.7 -9.9 -9.999 -99.9 -99.99 -9.99
2019/06/17 22:36 PDT    5.73   6.15    8  248   14  55.2  57.9 1012.6 -9.9 -9.999 -99.9 -99.99 -9.99
2019/06/17 22:42 PDT    5.79   6.25    7  231   14  55.2  57.9 1012.6 -9.9 -9.999 -99.9 -99.99 -9.99
2019/06/17 22:48 PDT    5.85   6.29    4  261   16  55.2  57.9 1012.6 -9.9 -9.999 -99.9 -99.99 -9.99
2019/06/17 22:54 PDT    5.91   6.38    5  240   14  55.0  57.6 1012.6 -9.9 -9.999 -99.9 -99.99 -9.99
2019/06/17 23:00 PDT    5.96   6.45    8  237   14  55.0  57.4 1012.5 -9.9 -9.999 -99.9 -99.99 -9.99
2019/06/17 23:06 PDT    6.01   6.51   12  230   18  55.0  56.8 1012.5 -9.9 -9.999 -99.9 -99.99 -9.99
2019/06/17 23:12 PDT    6.06   6.55    4  290   14  55.0  56.7 1012.6 -9.9 -9.999 -99.9 -99.99 -9.99
2019/06/17 23:18 PDT    6.10   6.61    8  243   16  55.0  56.7 1012.6 -9.9 -9.999 -99.9 -99.99 -9.99
2019/06/17 23:24 PDT    6.14   6.66    4  274   12  55.0  56.7 1012.5 -9.9 -9.999 -99.9 -99.99 -9.99
2019/06/17 23:30 PDT    6.17   6.72    3  271   11  55.0  56.5 1012.4 -9.9 -9.999 -99.9 -99.99 -9.99
2019/06/17 23:36 PDT    6.20   6.75    4  241   11  55.0  56.5 1012.4 -9.9 -9.999 -99.9 -99.99 -9.99
2019/06/17 23:42 PDT    6.22   6.75    3  222   11  55.0  56.3 1012.4 -9.9 -9.999 -99.9 -99.99 -9.99
2019/06/17 23:48 PDT    6.24   6.78    6  227   12  55.0  56.3 1012.4 -9.9 -9.999 -99.9 -99.99 -9.99
2019/06/17 23:54 PDT    6.25   6.80    4  220   14  55.0  56.3 1012.6 -9.9 -9.999 -99.9 -99.99 -9.99
2019/06/18 00:00 PDT    6.26   6.81    4  254   10  55.0  56.3 1012.6 -9.9 -9.999 -99.9 -99.99 -9.99
2019/06/18 00:06 PDT    6.26   6.76    3  237    8  55.0  56.3 1012.6 -9.9 -9.999 -99.9 -99.99 -9.99
2019/06/18 00:12 PDT    6.26   6.75    3  237    9  55.0  56.3 1012.6 -9.9 -9.999 -99.9 -99.99 -9.99
2019/06/18 00:18 PDT    6.25   6.77    5  241   16  55.0  56.3 1012.5 -9.9 -9.999 -99.9 -99.99 -9.99
2019/06/18 00:24 PDT    6.23 -99.99 -999 -999 -999 -99.9 -99.9 -999.9 -9.9 -9.999 -99.9 -99.99 -9.99
2019/06/18 00:30 PDT    6.21 -99.99 -999 -999 -999 -99.9 -99.9 -999.9 -9.9 -9.999 -99.9 -99.99 -9.99

Revised: 08/08/2018
NOAA / National Ocean Service
Web site owner: Center for Operational Oceanographic Products and Services